<?xml version='1.0' encoding='UTF-8'?><gpx version="1.1" creator="JPX - https://github.com/jenetics/jpx" xmlns="http://www.topografix.com/GPX/1/1"><trk><trkseg><trkpt lat="42.80045525685688" lon="13.571361235629738"><ele>1101.9999999999998</ele><time>2026-04-12T08:01:39.893Z</time></trkpt><trkpt lat="42.800439103038585" lon="13.571450007512853"><ele>1102.0</ele><time>2026-04-12T08:01:50Z</time></trkpt><trkpt lat="42.800375770068406" lon="13.571480967427664"><ele>1102.0</ele><time>2026-04-12T08:01:58Z</time></trkpt><trkpt lat="42.80033178752351" lon="13.571548944793014"><ele>1102.0</ele><time>2026-04-12T08:02:04Z</time></trkpt><trkpt lat="42.8002710335956" lon="13.571608107049043"><ele>1102.0</ele><time>2026-04-12T08:02:10Z</time></trkpt><trkpt lat="42.80021270464905" lon="13.57165647395997"><ele>1101.9999999999998</ele><time>2026-04-12T08:02:17Z</time></trkpt><trkpt lat="42.80017553253385" lon="13.571738839693824"><ele>1102.0</ele><time>2026-04-12T08:02:27Z</time></trkpt><trkpt lat="42.800091344696376" lon="13.57175598023311"><ele>1102.2857142857142</ele><time>2026-04-12T08:02:33.999Z</time></trkpt><trkpt lat="42.80003555918586" lon="13.57181502882452"><ele>1102.5714285714284</ele><time>2026-04-12T08:02:39.999Z</time></trkpt><trkpt lat="42.799980543886385" lon="13.571857720345324"><ele>1102.857142857143</ele><time>2026-04-12T08:02:44.999Z</time></trkpt><trkpt lat="42.799924751724696" lon="13.57190947744966"><ele>1103.142857142857</ele><time>2026-04-12T08:02:52.999Z</time></trkpt><trkpt lat="42.79987448024428" lon="13.571963996853292"><ele>1103.4285714285716</ele><time>2026-04-12T08:02:58.999Z</time></trkpt><trkpt lat="42.799816762011346" lon="13.572015180647261"><ele>1103.7142857142858</ele><time>2026-04-12T08:03:05.999Z</time></trkpt><trkpt lat="42.79977231202494" lon="13.57209276356401"><ele>1104.0</ele><time>2026-04-12T08:03:10.999Z</time></trkpt><trkpt lat="42.79974826118268" lon="13.572172912825625"><ele>1103.0</ele><time>2026-04-12T08:03:13.999Z</time></trkpt><trkpt lat="42.79972818031903" lon="13.572262628423458"><ele>1102.0</ele><time>2026-04-12T08:03:17.999Z</time></trkpt><trkpt lat="42.79968824552606" lon="13.572342968032395"><ele>1101.0</ele><time>2026-04-12T08:03:24.999Z</time></trkpt><trkpt lat="42.79965988777967" lon="13.572430434107806"><ele>1100.0</ele><time>2026-04-12T08:03:33.998Z</time></trkpt><trkpt lat="42.79963400368429" lon="13.572512687519655"><ele>1099.0</ele><time>2026-04-12T08:03:40.998Z</time></trkpt><trkpt lat="42.79957884670489" lon="13.572588045330194"><ele>1098.0</ele><time>2026-04-12T08:03:48Z</time></trkpt><trkpt lat="42.79953471304124" lon="13.572649640556232"><ele>1097.0</ele><time>2026-04-12T08:03:54Z</time></trkpt><trkpt lat="42.79949144089839" lon="13.572723715541146"><ele>1097.0</ele><time>2026-04-12T08:04:00Z</time></trkpt><trkpt lat="42.79943842987822" lon="13.572797763430081"><ele>1097.0</ele><time>2026-04-12T08:04:07Z</time></trkpt><trkpt lat="42.799400421249985" lon="13.572870276552017"><ele>1097.0</ele><time>2026-04-12T08:04:13Z</time></trkpt><trkpt lat="42.79935934153001" lon="13.57293874706593"><ele>1097.0</ele><time>2026-04-12T08:04:19Z</time></trkpt><trkpt lat="42.7993299976657" lon="13.573016025817195"><ele>1097.0</ele><time>2026-04-12T08:04:25Z</time></trkpt><trkpt lat="42.799290490721845" lon="13.573099480919161"><ele>1097.0</ele><time>2026-04-12T08:04:32Z</time></trkpt><trkpt lat="42.79924941055464" lon="13.573168092393443"><ele>1097.0</ele><time>2026-04-12T08:04:38.999Z</time></trkpt><trkpt lat="42.79920184416446" lon="13.573243356932197"><ele>1098.4285714285716</ele><time>2026-04-12T08:04:45.999Z</time></trkpt><trkpt lat="42.79915243046505" lon="13.573299224875953"><ele>1099.857142857143</ele><time>2026-04-12T08:04:50.999Z</time></trkpt><trkpt lat="42.79909619198187" lon="13.573353342440958"><ele>1101.2857142857142</ele><time>2026-04-12T08:04:56.999Z</time></trkpt><trkpt lat="42.79903802699047" lon="13.573406821785051"><ele>1102.7142857142858</ele><time>2026-04-12T08:05:02.999Z</time></trkpt><trkpt lat="42.79897687492992" lon="13.573461044143418"><ele>1104.142857142857</ele><time>2026-04-12T08:05:10.999Z</time></trkpt><trkpt lat="42.798921292001616" lon="13.573511004950843"><ele>1105.5714285714287</ele><time>2026-04-12T08:05:16.999Z</time></trkpt><trkpt lat="42.798877131958974" lon="13.573577394225355"><ele>1107.0</ele><time>2026-04-12T08:05:22.999Z</time></trkpt><trkpt lat="42.79881252155363" lon="13.573618768766453"><ele>1107.0</ele><time>2026-04-12T08:05:30.999Z</time></trkpt><trkpt lat="42.79875100603224" lon="13.573647269166452"><ele>1107.0</ele><time>2026-04-12T08:05:37.999Z</time></trkpt><trkpt lat="42.79869392187395" lon="13.573695430055075"><ele>1107.0</ele><time>2026-04-12T08:05:43.999Z</time></trkpt><trkpt lat="42.79864400922154" lon="13.573762122925888"><ele>1107.0</ele><time>2026-04-12T08:05:51.998Z</time></trkpt><trkpt lat="42.79860237736426" lon="13.573843276351052"><ele>1107.0</ele><time>2026-04-12T08:05:58Z</time></trkpt><trkpt lat="42.79855338383942" lon="13.573909484746855"><ele>1107.0</ele><time>2026-04-12T08:06:08Z</time></trkpt><trkpt lat="42.798570217263254" lon="13.573993547265145"><ele>1107.0</ele><time>2026-04-12T08:06:19Z</time></trkpt><trkpt lat="42.7985597313164" lon="13.574080431464939"><ele>1107.2857142857142</ele><time>2026-04-12T08:06:25Z</time></trkpt><trkpt lat="42.79855021054313" lon="13.574165446590536"><ele>1107.5714285714284</ele><time>2026-04-12T08:06:35Z</time></trkpt><trkpt lat="42.79856895467319" lon="13.57425488673721"><ele>1107.8571428571427</ele><time>2026-04-12T08:06:48.999Z</time></trkpt><trkpt lat="42.798557801651555" lon="13.574343364921523"><ele>1108.142857142857</ele><time>2026-04-12T08:07:01.999Z</time></trkpt><trkpt lat="42.79854405950903" lon="13.574433539812999"><ele>1108.4285714285713</ele><time>2026-04-12T08:07:12.999Z</time></trkpt><trkpt lat="42.798557395765194" lon="13.574520034054139"><ele>1108.7142857142856</ele><time>2026-04-12T08:07:23.999Z</time></trkpt><trkpt lat="42.798596953984195" lon="13.57458985795051"><ele>1109.0</ele><time>2026-04-12T08:07:31.999Z</time></trkpt><trkpt lat="42.79862058348432" lon="13.57466966308458"><ele>1109.0</ele><time>2026-04-12T08:07:43.998Z</time></trkpt><trkpt lat="42.79863549293913" lon="13.574766198608959"><ele>1109.0</ele><time>2026-04-12T08:07:54.998Z</time></trkpt><trkpt lat="42.79863605780739" lon="13.574894875498156"><ele>1109.0</ele><time>2026-04-12T08:08:13Z</time></trkpt><trkpt lat="42.798621376880305" lon="13.574993611979556"><ele>1109.0</ele><time>2026-04-12T08:08:29Z</time></trkpt><trkpt lat="42.79856261178861" lon="13.575096665155076"><ele>1109.0</ele><time>2026-04-12T08:09:01.999Z</time></trkpt><trkpt lat="42.798493814065964" lon="13.575104259591077"><ele>1109.0</ele><time>2026-04-12T08:09:15.999Z</time></trkpt><trkpt lat="42.798454185340056" lon="13.575183955845374"><ele>1112.7142857142856</ele><time>2026-04-12T08:09:33.999Z</time></trkpt><trkpt lat="42.798381540797905" lon="13.575156794575792"><ele>1116.4285714285713</ele><time>2026-04-12T08:09:44.999Z</time></trkpt><trkpt lat="42.798334518568886" lon="13.57508633517686"><ele>1120.142857142857</ele><time>2026-04-12T08:09:55.998Z</time></trkpt><trkpt lat="42.798283807206204" lon="13.57502056403743"><ele>1123.8571428571427</ele><time>2026-04-12T08:10:10Z</time></trkpt><trkpt lat="42.7982328597218" lon="13.575083326951766"><ele>1127.5714285714284</ele><time>2026-04-12T08:10:19Z</time></trkpt><trkpt lat="42.79827205926347" lon="13.575151233437015"><ele>1131.2857142857142</ele><time>2026-04-12T08:10:29Z</time></trkpt><trkpt lat="42.79827596404199" lon="13.575255270638232"><ele>1135.0</ele><time>2026-04-12T08:10:48.999Z</time></trkpt><trkpt lat="42.798290423846666" lon="13.575342073916397"><ele>1135.0</ele><time>2026-04-12T08:10:56.999Z</time></trkpt><trkpt lat="42.798269382426604" lon="13.57542378034362"><ele>1135.0</ele><time>2026-04-12T08:11:07.999Z</time></trkpt><trkpt lat="42.798206232423226" lon="13.575394917153265"><ele>1135.0</ele><time>2026-04-12T08:11:17.999Z</time></trkpt><trkpt lat="42.79814088502533" lon="13.575367724784234"><ele>1135.0</ele><time>2026-04-12T08:11:31.999Z</time></trkpt><trkpt lat="42.798071800454345" lon="13.57533755759405"><ele>1135.0</ele><time>2026-04-12T08:11:47.999Z</time></trkpt><trkpt lat="42.79802145023475" lon="13.575284881645295"><ele>1135.0</ele><time>2026-04-12T08:12:01.998Z</time></trkpt><trkpt lat="42.797955391877295" lon="13.575286773876456"><ele>1135.0</ele><time>2026-04-12T08:12:17Z</time></trkpt><trkpt lat="42.797885421890776" lon="13.575286345441247"><ele>1135.0</ele><time>2026-04-12T08:12:29Z</time></trkpt><trkpt lat="42.7978172213136" lon="13.575294066748583"><ele>1135.0</ele><time>2026-04-12T08:12:46Z</time></trkpt><trkpt lat="42.7977611020403" lon="13.57525027420644"><ele>1135.0</ele><time>2026-04-12T08:12:55.999Z</time></trkpt><trkpt lat="42.797693565833974" lon="13.575263376095005"><ele>1135.0</ele><time>2026-04-12T08:13:08.999Z</time></trkpt><trkpt lat="42.79763248122231" lon="13.575236661770312"><ele>1135.0</ele><time>2026-04-12T08:13:23.999Z</time></trkpt><trkpt lat="42.797566754300895" lon="13.575212429889618"><ele>1135.0</ele><time>2026-04-12T08:13:40.999Z</time></trkpt><trkpt lat="42.797473152395014" lon="13.575218646183473"><ele>1135.0</ele><time>2026-04-12T08:14:02.998Z</time></trkpt><trkpt lat="42.79741458635389" lon="13.575251214866661"><ele>1139.3333333333333</ele><time>2026-04-12T08:14:26Z</time></trkpt><trkpt lat="42.797342442069365" lon="13.575236453141816"><ele>1143.6666666666665</ele><time>2026-04-12T08:14:38Z</time></trkpt><trkpt lat="42.79727710640242" lon="13.575258629311318"><ele>1148.0</ele><time>2026-04-12T08:14:49Z</time></trkpt><trkpt lat="42.7972138068609" lon="13.57529454916484"><ele>1152.3333333333333</ele><time>2026-04-12T08:15:04Z</time></trkpt><trkpt lat="42.79720985955732" lon="13.575472539421726"><ele>1156.6666666666667</ele><time>2026-04-12T08:15:31.999Z</time></trkpt><trkpt lat="42.79721206121546" lon="13.575581018301875"><ele>1161.0</ele><time>2026-04-12T08:15:47.999Z</time></trkpt><trkpt lat="42.797168578118594" lon="13.575650804296732"><ele>1164.2857142857142</ele><time>2026-04-12T08:16:00.999Z</time></trkpt><trkpt lat="42.79717504822694" lon="13.575744081264283"><ele>1167.5714285714287</ele><time>2026-04-12T08:16:18.998Z</time></trkpt><trkpt lat="42.79719935773837" lon="13.575828122917176"><ele>1170.857142857143</ele><time>2026-04-12T08:16:30Z</time></trkpt><trkpt lat="42.79722753368006" lon="13.575905640793584"><ele>1174.142857142857</ele><time>2026-04-12T08:16:51Z</time></trkpt><trkpt lat="42.79723982248356" lon="13.575991227910926"><ele>1177.4285714285713</ele><time>2026-04-12T08:17:00Z</time></trkpt><trkpt lat="42.797265134301135" lon="13.576076976955456"><ele>1180.7142857142858</ele><time>2026-04-12T08:17:10.999Z</time></trkpt><trkpt lat="42.79728424933298" lon="13.576175102353625"><ele>1184.0</ele><time>2026-04-12T08:17:16.999Z</time></trkpt><trkpt lat="42.797286622047714" lon="13.57626289182824"><ele>1185.2857142857142</ele><time>2026-04-12T08:17:26.999Z</time></trkpt><trkpt lat="42.79732346012476" lon="13.576341633315254"><ele>1186.5714285714284</ele><time>2026-04-12T08:17:36.999Z</time></trkpt><trkpt lat="42.797325552112106" lon="13.57643792048216"><ele>1187.8571428571427</ele><time>2026-04-12T08:17:44.999Z</time></trkpt><trkpt lat="42.79728698820314" lon="13.57651238772159"><ele>1189.142857142857</ele><time>2026-04-12T08:17:51.999Z</time></trkpt><trkpt lat="42.79724634337226" lon="13.57658704587675"><ele>1190.4285714285713</ele><time>2026-04-12T08:17:58.999Z</time></trkpt><trkpt lat="42.79719175360752" lon="13.576656128401943"><ele>1191.7142857142856</ele><time>2026-04-12T08:18:07.999Z</time></trkpt><trkpt lat="42.79714249971036" lon="13.576710181332468"><ele>1193.0</ele><time>2026-04-12T08:18:17.998Z</time></trkpt><trkpt lat="42.797089256976314" lon="13.57676203164823"><ele>1192.9999999999998</ele><time>2026-04-12T08:18:30Z</time></trkpt><trkpt lat="42.79702840505221" lon="13.576809833157181"><ele>1193.0</ele><time>2026-04-12T08:18:43Z</time></trkpt><trkpt lat="42.7969818542142" lon="13.576876700332686"><ele>1193.0</ele><time>2026-04-12T08:18:53Z</time></trkpt><trkpt lat="42.79694116344167" lon="13.576946488679505"><ele>1193.0</ele><time>2026-04-12T08:19:03Z</time></trkpt><trkpt lat="42.79694397855912" lon="13.577035223224069"><ele>1193.0</ele><time>2026-04-12T08:19:11Z</time></trkpt><trkpt lat="42.79694725471745" lon="13.577128181568979"><ele>1192.9999999999998</ele><time>2026-04-12T08:19:18.999Z</time></trkpt><trkpt lat="42.79695702790212" lon="13.577244201093635"><ele>1193.0</ele><time>2026-04-12T08:19:58.999Z</time></trkpt><trkpt lat="42.796962812514494" lon="13.577332414983571"><ele>1193.4285714285713</ele><time>2026-04-12T08:20:21.998Z</time></trkpt><trkpt lat="42.796930778170406" lon="13.57744988416936"><ele>1193.857142857143</ele><time>2026-04-12T08:21:55.999Z</time></trkpt><trkpt lat="42.7969700049795" lon="13.577375527311133"><ele>1194.2857142857142</ele><time>2026-04-12T08:22:39.998Z</time></trkpt><trkpt lat="42.79693084644558" lon="13.577449337694574"><ele>1194.7142857142858</ele><time>2026-04-12T08:22:41.999Z</time></trkpt><trkpt lat="42.796878687474184" lon="13.577499664755077"><ele>1195.142857142857</ele><time>2026-04-12T08:23:15.999Z</time></trkpt><trkpt lat="42.796834162837825" lon="13.577561314648397"><ele>1195.5714285714284</ele><time>2026-04-12T08:23:24.999Z</time></trkpt><trkpt lat="42.79678104567032" lon="13.577614037188583"><ele>1196.0</ele><time>2026-04-12T08:23:33.999Z</time></trkpt><trkpt lat="42.796741238588424" lon="13.577680796201875"><ele>1198.4285714285713</ele><time>2026-04-12T08:23:42.999Z</time></trkpt><trkpt lat="42.79669747037499" lon="13.577752992277992"><ele>1200.857142857143</ele><time>2026-04-12T08:23:52.999Z</time></trkpt><trkpt lat="42.79663721453528" lon="13.577786212020602"><ele>1203.2857142857142</ele><time>2026-04-12T08:24:50.999Z</time></trkpt><trkpt lat="42.79657299260205" lon="13.577819273630984"><ele>1205.7142857142858</ele><time>2026-04-12T08:24:59.999Z</time></trkpt><trkpt lat="42.79651977967177" lon="13.577868103300217"><ele>1208.142857142857</ele><time>2026-04-12T08:25:08.999Z</time></trkpt><trkpt lat="42.796462976032366" lon="13.577923396673443"><ele>1210.5714285714287</ele><time>2026-04-12T08:25:17.999Z</time></trkpt><trkpt lat="42.79640688701021" lon="13.577964253710189"><ele>1213.0</ele><time>2026-04-12T08:25:29.999Z</time></trkpt><trkpt lat="42.79634768256454" lon="13.578011989299851"><ele>1213.857142857143</ele><time>2026-04-12T08:25:42.999Z</time></trkpt><trkpt lat="42.79629730691459" lon="13.578070739380362"><ele>1214.7142857142856</ele><time>2026-04-12T08:25:54.999Z</time></trkpt><trkpt lat="42.7962522179612" lon="13.578135316305588"><ele>1215.5714285714284</ele><time>2026-04-12T08:26:05.999Z</time></trkpt><trkpt lat="42.796193461872434" lon="13.578171129628508"><ele>1216.4285714285716</ele><time>2026-04-12T08:26:17.999Z</time></trkpt><trkpt lat="42.796146411370955" lon="13.57824449996809"><ele>1217.2857142857142</ele><time>2026-04-12T08:26:28.999Z</time></trkpt><trkpt lat="42.796112541977074" lon="13.578328921146129"><ele>1218.142857142857</ele><time>2026-04-12T08:26:41.999Z</time></trkpt><trkpt lat="42.79606999366691" lon="13.578399506963338"><ele>1219.0</ele><time>2026-04-12T08:26:51.998Z</time></trkpt><trkpt lat="42.796020450127" lon="13.57845980335407"><ele>1221.142857142857</ele><time>2026-04-12T08:27:02Z</time></trkpt><trkpt lat="42.79599334513574" lon="13.578539130033532"><ele>1223.2857142857142</ele><time>2026-04-12T08:27:12Z</time></trkpt><trkpt lat="42.79593206391143" lon="13.57857357354538"><ele>1225.4285714285716</ele><time>2026-04-12T08:27:23Z</time></trkpt><trkpt lat="42.79589532241692" lon="13.578651007706071"><ele>1227.5714285714284</ele><time>2026-04-12T08:27:33Z</time></trkpt><trkpt lat="42.795849847806664" lon="13.578710929150523"><ele>1229.7142857142856</ele><time>2026-04-12T08:27:42Z</time></trkpt><trkpt lat="42.795754724776245" lon="13.57879672573437"><ele>1231.857142857143</ele><time>2026-04-12T08:28:41.999Z</time></trkpt><trkpt lat="42.79571860637247" lon="13.578874303394505"><ele>1234.0</ele><time>2026-04-12T08:28:48.999Z</time></trkpt><trkpt lat="42.79568740703725" lon="13.578951517417762"><ele>1235.0</ele><time>2026-04-12T08:28:57.999Z</time></trkpt><trkpt lat="42.79563124476665" lon="13.578992375877128"><ele>1236.0</ele><time>2026-04-12T08:29:12Z</time></trkpt><trkpt lat="42.79557432687217" lon="13.579041761437637"><ele>1237.0</ele><time>2026-04-12T08:29:22Z</time></trkpt><trkpt lat="42.7955122413505" lon="13.579118522560162"><ele>1238.0</ele><time>2026-04-12T08:29:30Z</time></trkpt><trkpt lat="42.79546129475799" lon="13.579178196524806"><ele>1239.0</ele><time>2026-04-12T08:29:44Z</time></trkpt><trkpt lat="42.79541302280779" lon="13.579244868114097"><ele>1240.0</ele><time>2026-04-12T08:29:54Z</time></trkpt><trkpt lat="42.79534830877339" lon="13.579269565572245"><ele>1241.0</ele><time>2026-04-12T08:31:59.999Z</time></trkpt><trkpt lat="42.795297907762325" lon="13.579354441344039"><ele>1241.0</ele><time>2026-04-12T08:32:43.999Z</time></trkpt><trkpt lat="42.79525189465202" lon="13.579419638980172"><ele>1241.0</ele><time>2026-04-12T08:32:53.999Z</time></trkpt><trkpt lat="42.795220625247886" lon="13.579495362562993"><ele>1241.0</ele><time>2026-04-12T08:33:01.999Z</time></trkpt><trkpt lat="42.79517613102852" lon="13.579562642858164"><ele>1241.0</ele><time>2026-04-12T08:33:12Z</time></trkpt><trkpt lat="42.795128938171125" lon="13.57962288057728"><ele>1241.0</ele><time>2026-04-12T08:33:26Z</time></trkpt><trkpt lat="42.795059387996126" lon="13.579718373092458"><ele>1241.0</ele><time>2026-04-12T08:33:48Z</time></trkpt><trkpt lat="42.795001408908774" lon="13.579764697038602"><ele>1241.0</ele><time>2026-04-12T08:33:56Z</time></trkpt><trkpt lat="42.7949525153974" lon="13.579829487948667"><ele>1245.3333333333335</ele><time>2026-04-12T08:34:05Z</time></trkpt><trkpt lat="42.79491638103785" lon="13.579902162231619"><ele>1249.6666666666667</ele><time>2026-04-12T08:34:15.999Z</time></trkpt><trkpt lat="42.79486693418873" lon="13.579961705374911"><ele>1254.0</ele><time>2026-04-12T08:34:24.999Z</time></trkpt><trkpt lat="42.794822910075915" lon="13.580030441218419"><ele>1258.3333333333333</ele><time>2026-04-12T08:34:35.999Z</time></trkpt><trkpt lat="42.79477048489501" lon="13.580092264661312"><ele>1262.6666666666665</ele><time>2026-04-12T08:35:00.999Z</time></trkpt><trkpt lat="42.79467268001495" lon="13.580201304354842"><ele>1267.0</ele><time>2026-04-12T08:35:33Z</time></trkpt><trkpt lat="42.794667819241624" lon="13.580290134189218"><ele>1266.5714285714287</ele><time>2026-04-12T08:35:48Z</time></trkpt><trkpt lat="42.79465390795863" lon="13.58037935503641"><ele>1266.142857142857</ele><time>2026-04-12T08:35:59Z</time></trkpt><trkpt lat="42.79461699547292" lon="13.580457199217859"><ele>1265.7142857142858</ele><time>2026-04-12T08:36:11Z</time></trkpt><trkpt lat="42.794565624538436" lon="13.580515160082532"><ele>1265.2857142857142</ele><time>2026-04-12T08:36:23Z</time></trkpt><trkpt lat="42.79451419671698" lon="13.580575332145354"><ele>1264.857142857143</ele><time>2026-04-12T08:36:34.999Z</time></trkpt><trkpt lat="42.79449821598447" lon="13.580665603792545"><ele>1264.4285714285716</ele><time>2026-04-12T08:36:46.999Z</time></trkpt><trkpt lat="42.79448099276413" lon="13.58075113516047"><ele>1264.0</ele><time>2026-04-12T08:36:54.999Z</time></trkpt><trkpt lat="42.79444530549863" lon="13.580830695839897"><ele>1264.0000000000002</ele><time>2026-04-12T08:37:01.999Z</time></trkpt><trkpt lat="42.794402819928855" lon="13.580905580576342"><ele>1264.0</ele><time>2026-04-12T08:37:12.999Z</time></trkpt><trkpt lat="42.79439977201915" lon="13.580995766234748"><ele>1264.0</ele><time>2026-04-12T08:37:21.999Z</time></trkpt><trkpt lat="42.794383322329516" lon="13.581090173293703"><ele>1264.0</ele><time>2026-04-12T08:37:29.001Z</time></trkpt><trkpt lat="42.794351232734556" lon="13.58117230990379"><ele>1264.0</ele><time>2026-04-12T08:37:37Z</time></trkpt><trkpt lat="42.794316915862396" lon="13.581245548906873"><ele>1264.0000000000002</ele><time>2026-04-12T08:37:45Z</time></trkpt><trkpt lat="42.79427321057691" lon="13.581320042242844"><ele>1264.0</ele><time>2026-04-12T08:37:56Z</time></trkpt><trkpt lat="42.794223605494295" lon="13.581387662652233"><ele>1266.857142857143</ele><time>2026-04-12T08:38:08Z</time></trkpt><trkpt lat="42.79416709303917" lon="13.581429381416669"><ele>1269.7142857142858</ele><time>2026-04-12T08:38:17Z</time></trkpt><trkpt lat="42.794101927416754" lon="13.581455138632366"><ele>1272.5714285714284</ele><time>2026-04-12T08:38:26Z</time></trkpt><trkpt lat="42.79404112239002" lon="13.581492532602747"><ele>1275.4285714285716</ele><time>2026-04-12T08:38:36.999Z</time></trkpt><trkpt lat="42.79402956716888" lon="13.581581925935414"><ele>1278.2857142857142</ele><time>2026-04-12T08:38:46.999Z</time></trkpt><trkpt lat="42.7940187289719" lon="13.581669143455425"><ele>1281.142857142857</ele><time>2026-04-12T08:38:56.999Z</time></trkpt><trkpt lat="42.79399344129896" lon="13.581751897125507"><ele>1284.0</ele><time>2026-04-12T08:39:04.999Z</time></trkpt><trkpt lat="42.79396045404632" lon="13.581825783386083"><ele>1283.9999999999998</ele><time>2026-04-12T08:39:12.999Z</time></trkpt><trkpt lat="42.7939117621454" lon="13.581902005962904"><ele>1284.0</ele><time>2026-04-12T08:39:54Z</time></trkpt><trkpt lat="42.79387656424806" lon="13.581982655713292"><ele>1284.0</ele><time>2026-04-12T08:40:08Z</time></trkpt><trkpt lat="42.79382781812306" lon="13.582042133138327"><ele>1284.0</ele><time>2026-04-12T08:40:22Z</time></trkpt><trkpt lat="42.79378752841495" lon="13.582111413381599"><ele>1284.0</ele><time>2026-04-12T08:40:29.999Z</time></trkpt><trkpt lat="42.793770319755204" lon="13.582209658662107"><ele>1283.9999999999998</ele><time>2026-04-12T08:40:43.999Z</time></trkpt><trkpt lat="42.793736749780706" lon="13.582287851349443"><ele>1284.0</ele><time>2026-04-12T08:40:54.999Z</time></trkpt><trkpt lat="42.793683093095304" lon="13.582342718741575"><ele>1283.142857142857</ele><time>2026-04-12T08:41:03.999Z</time></trkpt><trkpt lat="42.79362005913688" lon="13.582397166887457"><ele>1282.2857142857142</ele><time>2026-04-12T08:41:11.999Z</time></trkpt><trkpt lat="42.79357399019185" lon="13.582470428775828"><ele>1281.4285714285716</ele><time>2026-04-12T08:41:19.999Z</time></trkpt><trkpt lat="42.79354802458526" lon="13.582550099905115"><ele>1280.5714285714284</ele><time>2026-04-12T08:41:27.999Z</time></trkpt><trkpt lat="42.793501471269316" lon="13.582625157362616"><ele>1279.7142857142858</ele><time>2026-04-12T08:41:36Z</time></trkpt><trkpt lat="42.79347178985175" lon="13.58270423105316"><ele>1278.857142857143</ele><time>2026-04-12T08:41:49Z</time></trkpt><trkpt lat="42.79342521879141" lon="13.582762502223945"><ele>1278.0</ele><time>2026-04-12T08:42:03Z</time></trkpt><trkpt lat="42.79337395221207" lon="13.58282901090988"><ele>1280.1428571428573</ele><time>2026-04-12T08:42:13Z</time></trkpt><trkpt lat="42.79333823709012" lon="13.5829062189475"><ele>1282.2857142857142</ele><time>2026-04-12T08:42:21Z</time></trkpt><trkpt lat="42.79330020141392" lon="13.582984417576208"><ele>1284.4285714285716</ele><time>2026-04-12T08:42:28.999Z</time></trkpt><trkpt lat="42.793257109378565" lon="13.583053408214289"><ele>1286.5714285714287</ele><time>2026-04-12T08:42:37.999Z</time></trkpt><trkpt lat="42.79321953636281" lon="13.58312626428758"><ele>1288.7142857142858</ele><time>2026-04-12T08:42:46.999Z</time></trkpt><trkpt lat="42.79321566926892" lon="13.583214592779797"><ele>1290.857142857143</ele><time>2026-04-12T08:42:53.999Z</time></trkpt><trkpt lat="42.793214957499075" lon="13.583300850834895"><ele>1293.0</ele><time>2026-04-12T08:42:59.999Z</time></trkpt><trkpt lat="42.79316860559565" lon="13.583359848694275"><ele>1293.0</ele><time>2026-04-12T08:43:06.999Z</time></trkpt><trkpt lat="42.793123459641905" lon="13.583427556885546"><ele>1293.0</ele><time>2026-04-12T08:43:13.999Z</time></trkpt><trkpt lat="42.79309840857381" lon="13.583510333810098"><ele>1293.0</ele><time>2026-04-12T08:43:20.999Z</time></trkpt><trkpt lat="42.79308115574701" lon="13.583596242301995"><ele>1293.0</ele><time>2026-04-12T08:43:31.998Z</time></trkpt><trkpt lat="42.79303834113663" lon="13.583665118377459"><ele>1293.0</ele><time>2026-04-12T08:43:38.998Z</time></trkpt><trkpt lat="42.79298588469883" lon="13.58374500089956"><ele>1293.0</ele><time>2026-04-12T08:43:50Z</time></trkpt><trkpt lat="42.79293222731963" lon="13.583802662057881"><ele>1293.0</ele><time>2026-04-12T08:44:04Z</time></trkpt><trkpt lat="42.79287180977545" lon="13.583836477104443"><ele>1292.7142857142856</ele><time>2026-04-12T08:45:43.998Z</time></trkpt><trkpt lat="42.79295106130514" lon="13.583807990894883"><ele>1292.4285714285716</ele><time>2026-04-12T08:48:16.999Z</time></trkpt><trkpt lat="42.792955323976166" lon="13.583899690173187"><ele>1292.142857142857</ele><time>2026-04-12T08:48:30.999Z</time></trkpt><trkpt lat="42.792945220727624" lon="13.583989348324288"><ele>1291.8571428571427</ele><time>2026-04-12T08:49:00.999Z</time></trkpt><trkpt lat="42.79288335736163" lon="13.584023737200111"><ele>1291.5714285714284</ele><time>2026-04-12T08:49:20.999Z</time></trkpt><trkpt lat="42.79288200300707" lon="13.58412384342843"><ele>1291.2857142857142</ele><time>2026-04-12T08:49:37.999Z</time></trkpt><trkpt lat="42.792836474144536" lon="13.584200811459892"><ele>1291.0</ele><time>2026-04-12T08:49:49.998Z</time></trkpt><trkpt lat="42.792844933367945" lon="13.584287188398541"><ele>1290.9999999999998</ele><time>2026-04-12T08:50:00.999Z</time></trkpt><trkpt lat="42.792863395778745" lon="13.584378872356254"><ele>1291.0</ele><time>2026-04-12T08:50:28.999Z</time></trkpt><trkpt lat="42.79279564975739" lon="13.584346822496682"><ele>1291.0</ele><time>2026-04-12T08:51:21.999Z</time></trkpt><trkpt lat="42.792731039675374" lon="13.58431114656067"><ele>1291.0</ele><time>2026-04-12T08:52:39Z</time></trkpt><trkpt lat="42.79267010755524" lon="13.584347844728264"><ele>1291.0</ele><time>2026-04-12T08:53:20.999Z</time></trkpt><trkpt lat="42.792607141417975" lon="13.5843705721015"><ele>1290.9999999999998</ele><time>2026-04-12T08:53:40.999Z</time></trkpt><trkpt lat="42.79253985389276" lon="13.584419569502275"><ele>1291.0</ele><time>2026-04-12T08:54:07.999Z</time></trkpt><trkpt lat="42.7924887970312" lon="13.584474954895637"><ele>1294.8333333333333</ele><time>2026-04-12T08:54:22.998Z</time></trkpt><trkpt lat="42.79245869233002" lon="13.58455352977741"><ele>1298.6666666666665</ele><time>2026-04-12T08:54:34.998Z</time></trkpt><trkpt lat="42.79240291567069" lon="13.584609734913341"><ele>1302.5</ele><time>2026-04-12T08:54:44.999Z</time></trkpt><trkpt lat="42.79232101454956" lon="13.584603692719947"><ele>1306.3333333333333</ele><time>2026-04-12T08:55:02.999Z</time></trkpt><trkpt lat="42.79220017494156" lon="13.584539252734462"><ele>1310.1666666666667</ele><time>2026-04-12T08:55:30.999Z</time></trkpt><trkpt lat="42.7921268134464" lon="13.584542726079228"><ele>1314.0</ele><time>2026-04-12T08:55:45.999Z</time></trkpt><trkpt lat="42.79205280459787" lon="13.58455255918562"><ele>1314.0</ele><time>2026-04-12T08:55:56.999Z</time></trkpt><trkpt lat="42.791983522181724" lon="13.584572068159236"><ele>1314.0</ele><time>2026-04-12T08:56:10.999Z</time></trkpt><trkpt lat="42.79191951432105" lon="13.584583670168168"><ele>1314.0</ele><time>2026-04-12T08:56:22.996Z</time></trkpt><trkpt lat="42.791859477729155" lon="13.584610840881105"><ele>1314.0</ele><time>2026-04-12T08:56:59.998Z</time></trkpt><trkpt lat="42.79180716327953" lon="13.584660685242198"><ele>1314.0</ele><time>2026-04-12T08:57:12.999Z</time></trkpt><trkpt lat="42.791702575462715" lon="13.584765042505596"><ele>1314.0</ele><time>2026-04-12T08:57:39.999Z</time></trkpt><trkpt lat="42.791644125232374" lon="13.584844414056064"><ele>1318.0</ele><time>2026-04-12T08:57:55.999Z</time></trkpt><trkpt lat="42.791577441445" lon="13.584910069417967"><ele>1322.0</ele><time>2026-04-12T08:58:42.998Z</time></trkpt><trkpt lat="42.791514068636396" lon="13.584935812481813"><ele>1326.0</ele><time>2026-04-12T08:59:20Z</time></trkpt><trkpt lat="42.79145491129803" lon="13.58498951471217"><ele>1330.0</ele><time>2026-04-12T08:59:42Z</time></trkpt><trkpt lat="42.79142444928824" lon="13.585103176660517"><ele>1334.0</ele><time>2026-04-12T09:00:04Z</time></trkpt><trkpt lat="42.79137421133652" lon="13.585192098486479"><ele>1338.0</ele><time>2026-04-12T09:00:23.001Z</time></trkpt><trkpt lat="42.791333657465344" lon="13.58526290714023"><ele>1338.0</ele><time>2026-04-12T09:00:42.999Z</time></trkpt><trkpt lat="42.79127398752561" lon="13.58532218784283"><ele>1338.0</ele><time>2026-04-12T09:00:58Z</time></trkpt><trkpt lat="42.7912161746395" lon="13.585358397716517"><ele>1338.0</ele><time>2026-04-12T09:01:10Z</time></trkpt><trkpt lat="42.79116667382116" lon="13.58544759747907"><ele>1338.0</ele><time>2026-04-12T09:01:31.001Z</time></trkpt><trkpt lat="42.79114454368762" lon="13.585532405118386"><ele>1338.0</ele><time>2026-04-12T09:01:48.001Z</time></trkpt><trkpt lat="42.79106816498587" lon="13.585643758857664"><ele>1338.0</ele><time>2026-04-12T09:02:18.002Z</time></trkpt><trkpt lat="42.791017184235436" lon="13.58571759897548"><ele>1342.1666666666667</ele><time>2026-04-12T09:02:36.999Z</time></trkpt><trkpt lat="42.790964599069476" lon="13.585801421677214"><ele>1346.3333333333333</ele><time>2026-04-12T09:02:54.999Z</time></trkpt><trkpt lat="42.79093662176896" lon="13.585926004147002"><ele>1350.5</ele><time>2026-04-12T09:03:16Z</time></trkpt><trkpt lat="42.790873533209044" lon="13.585955788761176"><ele>1354.6666666666665</ele><time>2026-04-12T09:03:58.001Z</time></trkpt><trkpt lat="42.79082994473948" lon="13.58601840088556"><ele>1358.8333333333333</ele><time>2026-04-12T09:04:12.002Z</time></trkpt><trkpt lat="42.790765372770274" lon="13.586072111124405"><ele>1363.0</ele><time>2026-04-12T09:04:35.002Z</time></trkpt><trkpt lat="42.79069816606787" lon="13.58611765967447"><ele>1363.0</ele><time>2026-04-12T09:04:51Z</time></trkpt><trkpt lat="42.79065698556713" lon="13.586196298011648"><ele>1363.0</ele><time>2026-04-12T09:05:09Z</time></trkpt><trkpt lat="42.79058753421406" lon="13.586175750367964"><ele>1363.0</ele><time>2026-04-12T09:05:22.001Z</time></trkpt><trkpt lat="42.790528857433145" lon="13.586234733894289"><ele>1363.0</ele><time>2026-04-12T09:05:33.001Z</time></trkpt><trkpt lat="42.790501650807215" lon="13.58631463889275"><ele>1363.0</ele><time>2026-04-12T09:05:46.001Z</time></trkpt><trkpt lat="42.790449370177775" lon="13.586379313097265"><ele>1363.0</ele><time>2026-04-12T09:05:55.001Z</time></trkpt><trkpt lat="42.7904129406333" lon="13.586449922292568"><ele>1363.0</ele><time>2026-04-12T09:06:04.002Z</time></trkpt><trkpt lat="42.79036000221401" lon="13.586515932238894"><ele>1361.8333333333333</ele><time>2026-04-12T09:06:15.002Z</time></trkpt><trkpt lat="42.790297053705736" lon="13.58656783671396"><ele>1360.6666666666665</ele><time>2026-04-12T09:06:24.002Z</time></trkpt><trkpt lat="42.790236442847664" lon="13.586611027734545"><ele>1359.5</ele><time>2026-04-12T09:06:34.003Z</time></trkpt><trkpt lat="42.79017202040058" lon="13.586649068727304"><ele>1358.3333333333333</ele><time>2026-04-12T09:06:46.999Z</time></trkpt><trkpt lat="42.79005812407374" lon="13.586706449546973"><ele>1357.1666666666667</ele><time>2026-04-12T09:07:16Z</time></trkpt><trkpt lat="42.78999457258925" lon="13.58672623170847"><ele>1356.0</ele><time>2026-04-12T09:07:34Z</time></trkpt><trkpt lat="42.789931340239114" lon="13.586738448808466"><ele>1357.5714285714284</ele><time>2026-04-12T09:07:38.001Z</time></trkpt><trkpt lat="42.789854629958526" lon="13.586765712129068"><ele>1359.1428571428573</ele><time>2026-04-12T09:09:39.001Z</time></trkpt><trkpt lat="42.789774661350435" lon="13.586723146985037"><ele>1360.7142857142858</ele><time>2026-04-12T09:09:53.001Z</time></trkpt><trkpt lat="42.78969188720485" lon="13.586711786611652"><ele>1362.2857142857142</ele><time>2026-04-12T09:10:06.001Z</time></trkpt><trkpt lat="42.78966595742681" lon="13.586793336873887"><ele>1363.8571428571427</ele><time>2026-04-12T09:10:15.002Z</time></trkpt><trkpt lat="42.78966928542165" lon="13.586888340239783"><ele>1365.4285714285716</ele><time>2026-04-12T09:10:40.002Z</time></trkpt><trkpt lat="42.78964567851991" lon="13.586971399329137"><ele>1367.0</ele><time>2026-04-12T09:10:48.002Z</time></trkpt><trkpt lat="42.7896032300324" lon="13.58703547830625"><ele>1367.0</ele><time>2026-04-12T09:10:57.003Z</time></trkpt><trkpt lat="42.789575082983255" lon="13.587121554532313"><ele>1367.0</ele><time>2026-04-12T09:11:06Z</time></trkpt><trkpt lat="42.78956554787498" lon="13.587211503055553"><ele>1367.0</ele><time>2026-04-12T09:11:15Z</time></trkpt><trkpt lat="42.789517896863686" lon="13.58727265266341"><ele>1367.0</ele><time>2026-04-12T09:11:23Z</time></trkpt><trkpt lat="42.78946289395808" lon="13.587318822205164"><ele>1367.0</ele><time>2026-04-12T09:11:34Z</time></trkpt><trkpt lat="42.78940294368362" lon="13.587369284611192"><ele>1367.0</ele><time>2026-04-12T09:11:40Z</time></trkpt><trkpt lat="42.78935833646391" lon="13.587455801763413"><ele>1367.0</ele><time>2026-04-12T09:11:51.001Z</time></trkpt><trkpt lat="42.7893465185683" lon="13.587553500705505"><ele>1370.5714285714287</ele><time>2026-04-12T09:12:09.001Z</time></trkpt><trkpt lat="42.789341214090825" lon="13.58764637791964"><ele>1374.142857142857</ele><time>2026-04-12T09:12:23.001Z</time></trkpt><trkpt lat="42.78932675415818" lon="13.587739740407294"><ele>1377.7142857142858</ele><time>2026-04-12T09:12:42.002Z</time></trkpt><trkpt lat="42.78929276661863" lon="13.58781491699098"><ele>1381.2857142857142</ele><time>2026-04-12T09:12:54.002Z</time></trkpt><trkpt lat="42.789262248992024" lon="13.587908077891624"><ele>1384.857142857143</ele><time>2026-04-12T09:13:20.999Z</time></trkpt><trkpt lat="42.789233992370555" lon="13.587998590942835"><ele>1388.4285714285713</ele><time>2026-04-12T09:13:44Z</time></trkpt><trkpt lat="42.78918663658917" lon="13.58805834696399"><ele>1392.0</ele><time>2026-04-12T09:14:02.001Z</time></trkpt><trkpt lat="42.78920471459464" lon="13.588188332761291"><ele>1392.0</ele><time>2026-04-12T09:14:27.001Z</time></trkpt><trkpt lat="42.78914133135621" lon="13.588238234681187"><ele>1392.0</ele><time>2026-04-12T09:14:38.002Z</time></trkpt><trkpt lat="42.789142270888924" lon="13.588329741511"><ele>1392.0</ele><time>2026-04-12T09:14:49.002Z</time></trkpt><trkpt lat="42.78912896477882" lon="13.588417662533317"><ele>1392.0</ele><time>2026-04-12T09:15:08.002Z</time></trkpt><trkpt lat="42.7890662054463" lon="13.588532265247675"><ele>1392.0</ele><time>2026-04-12T09:15:42Z</time></trkpt><trkpt lat="42.78900156331535" lon="13.58862986739877"><ele>1392.0</ele><time>2026-04-12T09:15:57.001Z</time></trkpt><trkpt lat="42.788943021337545" lon="13.588581186683424"><ele>1392.0</ele><time>2026-04-12T09:16:10.001Z</time></trkpt><trkpt lat="42.788884757341265" lon="13.588535402385444"><ele>1392.0</ele><time>2026-04-12T09:16:22.001Z</time></trkpt><trkpt lat="42.78881111899807" lon="13.5885420403423"><ele>1392.0</ele><time>2026-04-12T09:16:36.002Z</time></trkpt><trkpt lat="42.788767988802455" lon="13.588633268627877"><ele>1392.0</ele><time>2026-04-12T09:16:54.002Z</time></trkpt><trkpt lat="42.78870362231195" lon="13.588647204608934"><ele>1392.0</ele><time>2026-04-12T09:17:25Z</time></trkpt><trkpt lat="42.78868008767628" lon="13.588740138131213"><ele>1392.0</ele><time>2026-04-12T09:17:39Z</time></trkpt><trkpt lat="42.78861897239241" lon="13.58868087631381"><ele>1392.0</ele><time>2026-04-12T09:17:57.001Z</time></trkpt><trkpt lat="42.7885903411291" lon="13.588766874640362"><ele>1391.2857142857142</ele><time>2026-04-12T09:18:16.001Z</time></trkpt><trkpt lat="42.78858861153247" lon="13.588859854700587"><ele>1390.5714285714287</ele><time>2026-04-12T09:18:30.002Z</time></trkpt><trkpt lat="42.78857700873127" lon="13.588954436588457"><ele>1389.857142857143</ele><time>2026-04-12T09:18:53.002Z</time></trkpt><trkpt lat="42.788615032995196" lon="13.5890343032553"><ele>1389.142857142857</ele><time>2026-04-12T09:19:01.003Z</time></trkpt><trkpt lat="42.788567899217206" lon="13.589098388185354"><ele>1388.4285714285713</ele><time>2026-04-12T09:19:07.003Z</time></trkpt><trkpt lat="42.788506648287985" lon="13.589152111396386"><ele>1387.7142857142858</ele><time>2026-04-12T09:19:16.003Z</time></trkpt><trkpt lat="42.78853303991817" lon="13.58924185772145"><ele>1387.0</ele><time>2026-04-12T09:19:30Z</time></trkpt><trkpt lat="42.788542707077035" lon="13.58932943721982"><ele>1387.0</ele><time>2026-04-12T09:19:43Z</time></trkpt><trkpt lat="42.78853889443304" lon="13.589430437050446"><ele>1387.0</ele><time>2026-04-12T09:19:57.001Z</time></trkpt><trkpt lat="42.78851217218986" lon="13.589508504070432"><ele>1387.0</ele><time>2026-04-12T09:20:04.001Z</time></trkpt><trkpt lat="42.788568797210814" lon="13.589628224684981"><ele>1387.0</ele><time>2026-04-12T09:20:25.001Z</time></trkpt><trkpt lat="42.78857593547251" lon="13.589718778053555"><ele>1387.0</ele><time>2026-04-12T09:20:34.002Z</time></trkpt><trkpt lat="42.78858321640618" lon="13.589814568886455"><ele>1387.0</ele><time>2026-04-12T09:20:42.002Z</time></trkpt><trkpt lat="42.7886126190525" lon="13.58989684746686"><ele>1387.0</ele><time>2026-04-12T09:20:52.002Z</time></trkpt><trkpt lat="42.788638827918284" lon="13.58998728437945"><ele>1385.7142857142858</ele><time>2026-04-12T09:21:03.003Z</time></trkpt><trkpt lat="42.78864370916202" lon="13.590080061659698"><ele>1384.4285714285713</ele><time>2026-04-12T09:21:17.003Z</time></trkpt><trkpt lat="42.78866397161532" lon="13.590166978070432"><ele>1383.142857142857</ele><time>2026-04-12T09:21:32Z</time></trkpt><trkpt lat="42.788626260301236" lon="13.590087518966852"><ele>1381.857142857143</ele><time>2026-04-12T09:27:11.002Z</time></trkpt><trkpt lat="42.78859161279116" lon="13.590014370728134"><ele>1380.5714285714287</ele><time>2026-04-12T09:27:31.003Z</time></trkpt><trkpt lat="42.78855246065229" lon="13.589933494445262"><ele>1379.2857142857142</ele><time>2026-04-12T09:27:39.003Z</time></trkpt><trkpt lat="42.78852499763213" lon="13.589832668929285"><ele>1378.0</ele><time>2026-04-12T09:28:03.001Z</time></trkpt><trkpt lat="42.78850033437215" lon="13.589746044854135"><ele>1379.2857142857142</ele><time>2026-04-12T09:28:12.001Z</time></trkpt><trkpt lat="42.78846734650193" lon="13.589636030547027"><ele>1380.5714285714287</ele><time>2026-04-12T09:28:17.001Z</time></trkpt><trkpt lat="42.788505101460636" lon="13.589563947948367"><ele>1381.857142857143</ele><time>2026-04-12T09:28:26.001Z</time></trkpt><trkpt lat="42.78850352346525" lon="13.589474058803205"><ele>1383.142857142857</ele><time>2026-04-12T09:28:32.001Z</time></trkpt><trkpt lat="42.78846556686238" lon="13.589400724381008"><ele>1384.4285714285713</ele><time>2026-04-12T09:28:40.001Z</time></trkpt><trkpt lat="42.788503587039656" lon="13.58932844006347"><ele>1385.7142857142858</ele><time>2026-04-12T09:28:48.001Z</time></trkpt><trkpt lat="42.78851865283409" lon="13.589219316508474"><ele>1387.0</ele><time>2026-04-12T09:28:56.001Z</time></trkpt><trkpt lat="42.78845886600079" lon="13.589182821589393"><ele>1387.0</ele><time>2026-04-12T09:29:07.001Z</time></trkpt><trkpt lat="42.78847395398843" lon="13.589084320593903"><ele>1387.0</ele><time>2026-04-12T09:29:12.001Z</time></trkpt><trkpt lat="42.788478531729034" lon="13.588988832939883"><ele>1387.0</ele><time>2026-04-12T09:29:19.001Z</time></trkpt><trkpt lat="42.78856205923605" lon="13.588958421522713"><ele>1387.0</ele><time>2026-04-12T09:29:25.001Z</time></trkpt><trkpt lat="42.788572791897906" lon="13.58885805289234"><ele>1387.0</ele><time>2026-04-12T09:29:36.001Z</time></trkpt><trkpt lat="42.78850103948211" lon="13.588812287193093"><ele>1387.0</ele><time>2026-04-12T09:29:52.002Z</time></trkpt><trkpt lat="42.788576084742616" lon="13.588818924822206"><ele>1387.0</ele><time>2026-04-12T09:30:14Z</time></trkpt><trkpt lat="42.78855863181502" lon="13.588719325749016"><ele>1387.0</ele><time>2026-04-12T09:30:49.001Z</time></trkpt><trkpt lat="42.788561293326985" lon="13.588631250748834"><ele>1387.0</ele><time>2026-04-12T09:31:19.001Z</time></trkpt><trkpt lat="42.78849396954499" lon="13.588735696836887"><ele>1387.0</ele><time>2026-04-12T09:31:25.001Z</time></trkpt><trkpt lat="42.78853385636426" lon="13.588840953916572"><ele>1387.0</ele><time>2026-04-12T09:32:02.001Z</time></trkpt><trkpt lat="42.78851831125177" lon="13.588753815598892"><ele>1387.0</ele><time>2026-04-12T09:32:55.001Z</time></trkpt><trkpt lat="42.78858060185246" lon="13.588820053305147"><ele>1387.0</ele><time>2026-04-12T09:33:07.001Z</time></trkpt><trkpt lat="42.78850194368121" lon="13.588844849139901"><ele>1387.0</ele><time>2026-04-12T09:33:26.001Z</time></trkpt><trkpt lat="42.788553027913736" lon="13.58878593039375"><ele>1387.0</ele><time>2026-04-12T09:33:40.001Z</time></trkpt><trkpt lat="42.78846810350805" lon="13.588871409837974"><ele>1387.0</ele><time>2026-04-12T09:33:49.001Z</time></trkpt><trkpt lat="42.788418209189125" lon="13.588937118153236"><ele>1387.0</ele><time>2026-04-12T09:33:59.001Z</time></trkpt><trkpt lat="42.7883533812083" lon="13.58898013886685"><ele>1387.0</ele><time>2026-04-12T09:34:18.001Z</time></trkpt><trkpt lat="42.788297371838226" lon="13.589060974352433"><ele>1391.0</ele><time>2026-04-12T09:34:39Z</time></trkpt><trkpt lat="42.78822732879682" lon="13.589112147861606"><ele>1395.0</ele><time>2026-04-12T09:34:48Z</time></trkpt><trkpt lat="42.788154969821" lon="13.589159612061415"><ele>1399.0</ele><time>2026-04-12T09:35:24.001Z</time></trkpt><trkpt lat="42.78808213127158" lon="13.58920143824945"><ele>1403.0</ele><time>2026-04-12T09:35:48.001Z</time></trkpt><trkpt lat="42.78802210813485" lon="13.589249689839788"><ele>1407.0</ele><time>2026-04-12T09:36:10.001Z</time></trkpt><trkpt lat="42.78795095264327" lon="13.589266984465386"><ele>1411.0</ele><time>2026-04-12T09:36:20Z</time></trkpt><trkpt lat="42.787890655074435" lon="13.589321699074201"><ele>1411.0</ele><time>2026-04-12T09:36:36Z</time></trkpt><trkpt lat="42.78780364749479" lon="13.58924513909193"><ele>1411.0</ele><time>2026-04-12T09:37:04Z</time></trkpt><trkpt lat="42.787781110689515" lon="13.589385211170935"><ele>1411.0</ele><time>2026-04-12T09:37:20Z</time></trkpt><trkpt lat="42.7876942258464" lon="13.589437335155557"><ele>1411.0</ele><time>2026-04-12T09:37:40Z</time></trkpt><trkpt lat="42.78761868007751" lon="13.589509778662565"><ele>1411.0</ele><time>2026-04-12T09:38:03.001Z</time></trkpt><trkpt lat="42.787555058677526" lon="13.589540698181944"><ele>1412.4285714285716</ele><time>2026-04-12T09:38:22.998Z</time></trkpt><trkpt lat="42.78745523385079" lon="13.58951931059916"><ele>1413.857142857143</ele><time>2026-04-12T09:38:40.999Z</time></trkpt><trkpt lat="42.78739640063488" lon="13.589590731781902"><ele>1415.2857142857142</ele><time>2026-04-12T09:38:53.999Z</time></trkpt><trkpt lat="42.78736952230365" lon="13.589668411115888"><ele>1416.7142857142858</ele><time>2026-04-12T09:39:07Z</time></trkpt><trkpt lat="42.78733380990248" lon="13.589739853003982"><ele>1418.142857142857</ele><time>2026-04-12T09:39:29Z</time></trkpt><trkpt lat="42.78727028707512" lon="13.589775252350705"><ele>1419.5714285714287</ele><time>2026-04-12T09:39:38Z</time></trkpt><trkpt lat="42.78721413329353" lon="13.589830608652397"><ele>1421.0</ele><time>2026-04-12T09:40:05Z</time></trkpt><trkpt lat="42.787176200879536" lon="13.58990888347337"><ele>1421.0</ele><time>2026-04-12T09:40:14Z</time></trkpt><trkpt lat="42.78707648619979" lon="13.589968232844493"><ele>1421.0</ele><time>2026-04-12T09:40:26.998Z</time></trkpt><trkpt lat="42.78706068398083" lon="13.59006723088581"><ele>1421.0</ele><time>2026-04-12T09:40:33.998Z</time></trkpt><trkpt lat="42.78701837343192" lon="13.590142664670106"><ele>1421.0</ele><time>2026-04-12T09:40:34.998Z</time></trkpt><trkpt lat="42.78696510757689" lon="13.590052834892045"><ele>1421.0</ele><time>2026-04-12T09:40:52.999Z</time></trkpt><trkpt lat="42.78691514980232" lon="13.590111757038908"><ele>1421.0</ele><time>2026-04-12T09:41:01.999Z</time></trkpt><trkpt lat="42.78685050633044" lon="13.590126783254295"><ele>1421.5714285714287</ele><time>2026-04-12T09:41:11Z</time></trkpt><trkpt lat="42.78678661596357" lon="13.590113184876012"><ele>1422.142857142857</ele><time>2026-04-12T09:41:18Z</time></trkpt><trkpt lat="42.786719091988665" lon="13.590109905110808"><ele>1422.7142857142858</ele><time>2026-04-12T09:41:26Z</time></trkpt><trkpt lat="42.786687015590644" lon="13.59021126026085"><ele>1423.2857142857142</ele><time>2026-04-12T09:41:37Z</time></trkpt><trkpt lat="42.78661746047053" lon="13.59024202588761"><ele>1423.857142857143</ele><time>2026-04-12T09:41:54Z</time></trkpt><trkpt lat="42.78655763318696" lon="13.59028414267867"><ele>1424.4285714285716</ele><time>2026-04-12T09:42:00.001Z</time></trkpt><trkpt lat="42.78653619150671" lon="13.590377136370604"><ele>1425.0</ele><time>2026-04-12T09:42:11.001Z</time></trkpt><trkpt lat="42.786495929205095" lon="13.59045439304387"><ele>1425.0000000000002</ele><time>2026-04-12T09:42:28.998Z</time></trkpt><trkpt lat="42.78644068723554" lon="13.590511028113854"><ele>1425.0</ele><time>2026-04-12T09:42:30.998Z</time></trkpt><trkpt lat="42.78638204743654" lon="13.590548480180102"><ele>1425.0</ele><time>2026-04-12T09:42:50.999Z</time></trkpt><trkpt lat="42.786316352351335" lon="13.590573387316564"><ele>1425.0</ele><time>2026-04-12T09:43:00.999Z</time></trkpt><trkpt lat="42.78625298285376" lon="13.590583275223478"><ele>1425.0</ele><time>2026-04-12T09:43:14Z</time></trkpt><trkpt lat="42.786168669263816" lon="13.590585313418298"><ele>1425.0000000000002</ele><time>2026-04-12T09:43:33Z</time></trkpt><trkpt lat="42.78610548873722" lon="13.590572616216118"><ele>1425.0</ele><time>2026-04-12T09:43:55.001Z</time></trkpt><trkpt lat="42.78604036232558" lon="13.590552500604351"><ele>1427.857142857143</ele><time>2026-04-12T09:44:09.001Z</time></trkpt><trkpt lat="42.78595007089044" lon="13.590550607012558"><ele>1430.7142857142858</ele><time>2026-04-12T09:44:42.998Z</time></trkpt><trkpt lat="42.78590673939126" lon="13.590649344726156"><ele>1433.5714285714284</ele><time>2026-04-12T09:44:49.999Z</time></trkpt><trkpt lat="42.78588503453367" lon="13.590555675187646"><ele>1436.4285714285716</ele><time>2026-04-12T09:44:55.999Z</time></trkpt><trkpt lat="42.78585355609569" lon="13.59063264813628"><ele>1439.2857142857142</ele><time>2026-04-12T09:45:03Z</time></trkpt><trkpt lat="42.78578657293602" lon="13.590635073563243"><ele>1442.142857142857</ele><time>2026-04-12T09:45:18Z</time></trkpt><trkpt lat="42.78572803892678" lon="13.590667416541432"><ele>1445.0</ele><time>2026-04-12T09:45:39.001Z</time></trkpt><trkpt lat="42.785659186910586" lon="13.590658330882441"><ele>1444.9999999999998</ele><time>2026-04-12T09:46:00.001Z</time></trkpt><trkpt lat="42.78559805734274" lon="13.590690677924"><ele>1445.0</ele><time>2026-04-12T09:46:02.001Z</time></trkpt><trkpt lat="42.78553122855119" lon="13.590726359530848"><ele>1445.0</ele><time>2026-04-12T09:46:24.002Z</time></trkpt><trkpt lat="42.78544732369114" lon="13.590784060287321"><ele>1445.0</ele><time>2026-04-12T09:46:49.999Z</time></trkpt><trkpt lat="42.785393977425585" lon="13.590844371853086"><ele>1445.0</ele><time>2026-04-12T09:46:58.999Z</time></trkpt><trkpt lat="42.78532840817752" lon="13.590879686434997"><ele>1444.9999999999998</ele><time>2026-04-12T09:47:10Z</time></trkpt><trkpt lat="42.78526966814508" lon="13.590917258496923"><ele>1445.0</ele><time>2026-04-12T09:47:22Z</time></trkpt><trkpt lat="42.785217250236826" lon="13.590973518676956"><ele>1446.4285714285713</ele><time>2026-04-12T09:47:40.001Z</time></trkpt><trkpt lat="42.78516357520846" lon="13.591040440996144"><ele>1447.857142857143</ele><time>2026-04-12T09:47:52.001Z</time></trkpt><trkpt lat="42.7851157551013" lon="13.591101182895608"><ele>1449.2857142857142</ele><time>2026-04-12T09:48:10.002Z</time></trkpt><trkpt lat="42.78505999431933" lon="13.591164718752816"><ele>1450.7142857142858</ele><time>2026-04-12T09:48:26.002Z</time></trkpt><trkpt lat="42.78500410236672" lon="13.591215089930538"><ele>1452.142857142857</ele><time>2026-04-12T09:48:45.003Z</time></trkpt><trkpt lat="42.784955584741056" lon="13.59128712104978"><ele>1453.5714285714284</ele><time>2026-04-12T09:48:53.999Z</time></trkpt><trkpt lat="42.78489441505955" lon="13.591335687562943"><ele>1455.0</ele><time>2026-04-12T09:50:54.001Z</time></trkpt><trkpt lat="42.784857651827465" lon="13.591409974149332"><ele>1455.0</ele><time>2026-04-12T09:52:17.001Z</time></trkpt><trkpt lat="42.78475197295902" lon="13.591462705196204"><ele>1455.0</ele><time>2026-04-12T09:52:20.001Z</time></trkpt><trkpt lat="42.78468002046607" lon="13.591485350342097"><ele>1455.0</ele><time>2026-04-12T09:53:20Z</time></trkpt><trkpt lat="42.78455025365296" lon="13.591412209205906"><ele>1455.0</ele><time>2026-04-12T09:54:08.001Z</time></trkpt><trkpt lat="42.78457869094318" lon="13.59149550365954"><ele>1455.0</ele><time>2026-04-12T09:55:16Z</time></trkpt><trkpt lat="42.78455575928646" lon="13.591579548750044"><ele>1455.0</ele><time>2026-04-12T09:55:25Z</time></trkpt><trkpt lat="42.78450314843943" lon="13.591643006642414"><ele>1455.0</ele><time>2026-04-12T09:55:35.001Z</time></trkpt><trkpt lat="42.784492150505265" lon="13.591555709947492"><ele>1455.0</ele><time>2026-04-12T09:57:13.001Z</time></trkpt><trkpt lat="42.784518620487184" lon="13.59164759690715"><ele>1455.0</ele><time>2026-04-12T09:57:25.001Z</time></trkpt><trkpt lat="42.78446849475356" lon="13.591587185485846"><ele>1455.0</ele><time>2026-04-12T09:58:05.001Z</time></trkpt><trkpt lat="42.784409273951965" lon="13.59151634481986"><ele>1455.0</ele><time>2026-04-12T09:58:18.001Z</time></trkpt><trkpt lat="42.78434500623294" lon="13.591618157418456"><ele>1455.0</ele><time>2026-04-12T09:59:00.002Z</time></trkpt><trkpt lat="42.78442350194382" lon="13.59161993375029"><ele>1455.0</ele><time>2026-04-12T09:59:08.002Z</time></trkpt><trkpt lat="42.78457306382277" lon="13.591588076634531"><ele>1455.0</ele><time>2026-04-12T10:00:46.002Z</time></trkpt><trkpt lat="42.78448675671861" lon="13.591583828827497"><ele>1455.0</ele><time>2026-04-12T10:01:06.002Z</time></trkpt><trkpt lat="42.78444687733217" lon="13.591666827806304"><ele>1455.0</ele><time>2026-04-12T10:01:31.003Z</time></trkpt><trkpt lat="42.784477828216325" lon="13.591573252072832"><ele>1455.0</ele><time>2026-04-12T10:03:45.002Z</time></trkpt><trkpt lat="42.78442537176866" lon="13.591625392196121"><ele>1455.0</ele><time>2026-04-12T10:04:28.001Z</time></trkpt><trkpt lat="42.78436249693597" lon="13.59166410018753"><ele>1455.0</ele><time>2026-04-12T10:04:38.001Z</time></trkpt><trkpt lat="42.78436305388419" lon="13.591752117213275"><ele>1455.0</ele><time>2026-04-12T10:04:49.001Z</time></trkpt><trkpt lat="42.78432156462041" lon="13.59182580398783"><ele>1455.0</ele><time>2026-04-12T10:04:58.001Z</time></trkpt><trkpt lat="42.784266719283366" lon="13.59192194447129"><ele>1455.0</ele><time>2026-04-12T10:05:14.001Z</time></trkpt><trkpt lat="42.78424258514704" lon="13.592002595930968"><ele>1455.0</ele><time>2026-04-12T10:05:29.001Z</time></trkpt><trkpt lat="42.78418426708024" lon="13.592042754896834"><ele>1457.142857142857</ele><time>2026-04-12T10:05:39.001Z</time></trkpt><trkpt lat="42.7841157775587" lon="13.592090474419496"><ele>1459.2857142857142</ele><time>2026-04-12T10:05:58.001Z</time></trkpt><trkpt lat="42.78404323015404" lon="13.592056900430428"><ele>1461.4285714285716</ele><time>2026-04-12T10:06:07.001Z</time></trkpt><trkpt lat="42.784002724714256" lon="13.592133253411669"><ele>1463.5714285714284</ele><time>2026-04-12T10:06:27Z</time></trkpt><trkpt lat="42.78393962001815" lon="13.592147093824414"><ele>1465.7142857142858</ele><time>2026-04-12T10:06:48Z</time></trkpt><trkpt lat="42.783907526770705" lon="13.592223947729074"><ele>1467.857142857143</ele><time>2026-04-12T10:06:55Z</time></trkpt><trkpt lat="42.78383604002291" lon="13.592236378466616"><ele>1470.0</ele><time>2026-04-12T10:07:04Z</time></trkpt><trkpt lat="42.783805527271724" lon="13.592336613004113"><ele>1470.0</ele><time>2026-04-12T10:07:19Z</time></trkpt><trkpt lat="42.78375772201247" lon="13.592394728261533"><ele>1470.0</ele><time>2026-04-12T10:07:42.001Z</time></trkpt><trkpt lat="42.7836622962639" lon="13.592442075703975"><ele>1470.0</ele><time>2026-04-12T10:08:14Z</time></trkpt><trkpt lat="42.78359772656227" lon="13.592498238179973"><ele>1470.0</ele><time>2026-04-12T10:08:38Z</time></trkpt><trkpt lat="42.78352869480113" lon="13.592502183764426"><ele>1470.0</ele><time>2026-04-12T10:09:02Z</time></trkpt><trkpt lat="42.78346517143659" lon="13.592569964596596"><ele>1470.0</ele><time>2026-04-12T10:09:22Z</time></trkpt><trkpt lat="42.78342009586049" lon="13.592630103542428"><ele>1474.0</ele><time>2026-04-12T10:09:47.001Z</time></trkpt><trkpt lat="42.78334290930237" lon="13.592629588346561"><ele>1478.0</ele><time>2026-04-12T10:10:05Z</time></trkpt><trkpt lat="42.783280658864044" lon="13.592697585508898"><ele>1482.0</ele><time>2026-04-12T10:10:50Z</time></trkpt><trkpt lat="42.78322252680028" lon="13.592655834739563"><ele>1486.0</ele><time>2026-04-12T10:11:09Z</time></trkpt><trkpt lat="42.783253920989345" lon="13.592570010001245"><ele>1490.0</ele><time>2026-04-12T10:11:17Z</time></trkpt><trkpt lat="42.78319521591063" lon="13.592532479259127"><ele>1494.0</ele><time>2026-04-12T10:11:26Z</time></trkpt><trkpt lat="42.78317988694078" lon="13.592626230851499"><ele>1498.0</ele><time>2026-04-12T10:11:31Z</time></trkpt><trkpt lat="42.783154332017865" lon="13.592732024709834"><ele>1498.0</ele><time>2026-04-12T10:11:46.999Z</time></trkpt><trkpt lat="42.78309018390237" lon="13.592765497568209"><ele>1498.0</ele><time>2026-04-12T10:12:03.001Z</time></trkpt><trkpt lat="42.78314083350506" lon="13.59267575532859"><ele>1498.0</ele><time>2026-04-12T10:13:36.999Z</time></trkpt><trkpt lat="42.78322657335142" lon="13.592654312606308"><ele>1498.0</ele><time>2026-04-12T10:14:49Z</time></trkpt><trkpt lat="42.78326984418819" lon="13.592536937431987"><ele>1498.0</ele><time>2026-04-12T10:15:12Z</time></trkpt><trkpt lat="42.78330591410912" lon="13.592614911029582"><ele>1498.0</ele><time>2026-04-12T10:15:22.999Z</time></trkpt><trkpt lat="42.78330362458909" lon="13.592709404524651"><ele>1498.0</ele><time>2026-04-12T10:15:39.999Z</time></trkpt><trkpt lat="42.78334540494046" lon="13.592616348956389"><ele>1498.0</ele><time>2026-04-12T10:15:47.999Z</time></trkpt><trkpt lat="42.78342227400484" lon="13.592551843838919"><ele>1498.0</ele><time>2026-04-12T10:16:07Z</time></trkpt><trkpt lat="42.78349065015689" lon="13.592541153181049"><ele>1498.0</ele><time>2026-04-12T10:16:22Z</time></trkpt><trkpt lat="42.78355529082449" lon="13.59249741620867"><ele>1498.0</ele><time>2026-04-12T10:16:37Z</time></trkpt><trkpt lat="42.783597002216915" lon="13.59242897493562"><ele>1498.0</ele><time>2026-04-12T10:16:58Z</time></trkpt><trkpt lat="42.78367931525919" lon="13.592379934989506"><ele>1493.3333333333333</ele><time>2026-04-12T10:17:11.999Z</time></trkpt><trkpt lat="42.783745229182024" lon="13.592348886222142"><ele>1488.6666666666665</ele><time>2026-04-12T10:17:35.999Z</time></trkpt><trkpt lat="42.78382053238386" lon="13.592304373945462"><ele>1484.0</ele><time>2026-04-12T10:17:45.999Z</time></trkpt><trkpt lat="42.78386303419809" lon="13.592219332940685"><ele>1479.3333333333333</ele><time>2026-04-12T10:17:53.999Z</time></trkpt><trkpt lat="42.783912862032096" lon="13.59214841310351"><ele>1474.6666666666667</ele><time>2026-04-12T10:18:04.999Z</time></trkpt><trkpt lat="42.78400021069403" lon="13.59207426925707"><ele>1470.0</ele><time>2026-04-12T10:18:22Z</time></trkpt><trkpt lat="42.784068566815236" lon="13.592015121981765"><ele>1472.0</ele><time>2026-04-12T10:18:41Z</time></trkpt><trkpt lat="42.7841233112345" lon="13.59197131423275"><ele>1474.0</ele><time>2026-04-12T10:19:04Z</time></trkpt><trkpt lat="42.78417927493162" lon="13.591907855605017"><ele>1476.0</ele><time>2026-04-12T10:19:10Z</time></trkpt><trkpt lat="42.78424025113655" lon="13.591931948438747"><ele>1478.0</ele><time>2026-04-12T10:19:17.999Z</time></trkpt><trkpt lat="42.78428585761869" lon="13.591869241221332"><ele>1480.0</ele><time>2026-04-12T10:19:33.999Z</time></trkpt><trkpt lat="42.78434631326877" lon="13.5917548614388"><ele>1482.0</ele><time>2026-04-12T10:19:58.999Z</time></trkpt><trkpt lat="42.78437329556697" lon="13.591670697255719"><ele>1484.0</ele><time>2026-04-12T10:20:08.999Z</time></trkpt><trkpt lat="42.78441303309271" lon="13.59160383884353"><ele>1479.1666666666667</ele><time>2026-04-12T10:20:17Z</time></trkpt><trkpt lat="42.78447483666291" lon="13.59153012403908"><ele>1474.3333333333335</ele><time>2026-04-12T10:20:36Z</time></trkpt><trkpt lat="42.78452538236741" lon="13.59147659341268"><ele>1469.5</ele><time>2026-04-12T10:20:43Z</time></trkpt><trkpt lat="42.78457875048349" lon="13.59142222522019"><ele>1464.6666666666667</ele><time>2026-04-12T10:20:58Z</time></trkpt><trkpt lat="42.78467069060954" lon="13.591370371079455"><ele>1459.8333333333333</ele><time>2026-04-12T10:21:13Z</time></trkpt><trkpt lat="42.784764332787404" lon="13.591289862132454"><ele>1455.0</ele><time>2026-04-12T10:21:57.999Z</time></trkpt><trkpt lat="42.78482974818538" lon="13.591280564696506"><ele>1455.0</ele><time>2026-04-12T10:22:41Z</time></trkpt><trkpt lat="42.78491014932864" lon="13.591211161281894"><ele>1455.0</ele><time>2026-04-12T10:23:20Z</time></trkpt><trkpt lat="42.784979499520524" lon="13.591201067279426"><ele>1455.0</ele><time>2026-04-12T10:23:39.999Z</time></trkpt><trkpt lat="42.785025279200404" lon="13.591108896588654"><ele>1455.0</ele><time>2026-04-12T10:23:52.999Z</time></trkpt><trkpt lat="42.785081502521486" lon="13.59102436610566"><ele>1455.0</ele><time>2026-04-12T10:24:05.999Z</time></trkpt><trkpt lat="42.785120647049375" lon="13.590954393497311"><ele>1455.0</ele><time>2026-04-12T10:24:14.999Z</time></trkpt><trkpt lat="42.78517997734846" lon="13.590910506901997"><ele>1453.3333333333333</ele><time>2026-04-12T10:24:26.999Z</time></trkpt><trkpt lat="42.78524397918955" lon="13.590802323233335"><ele>1451.6666666666667</ele><time>2026-04-12T10:24:44Z</time></trkpt><trkpt lat="42.785312084790746" lon="13.590747002163768"><ele>1450.0</ele><time>2026-04-12T10:24:54Z</time></trkpt><trkpt lat="42.785373910161375" lon="13.590703568685296"><ele>1448.3333333333335</ele><time>2026-04-12T10:25:05Z</time></trkpt><trkpt lat="42.78543072347338" lon="13.590665665451125"><ele>1446.6666666666667</ele><time>2026-04-12T10:25:19Z</time></trkpt><trkpt lat="42.78550454660606" lon="13.59063083306428"><ele>1445.0</ele><time>2026-04-12T10:25:33.999Z</time></trkpt><trkpt lat="42.78558605305611" lon="13.590573081045385"><ele>1445.0</ele><time>2026-04-12T10:25:56.999Z</time></trkpt><trkpt lat="42.78570054793754" lon="13.590566491025983"><ele>1445.0</ele><time>2026-04-12T10:26:16.999Z</time></trkpt><trkpt lat="42.785832438699984" lon="13.59047606592515"><ele>1445.0</ele><time>2026-04-12T10:26:54Z</time></trkpt><trkpt lat="42.785897401265125" lon="13.590454666832605"><ele>1445.0</ele><time>2026-04-12T10:27:10Z</time></trkpt><trkpt lat="42.78595497920304" lon="13.590494787493322"><ele>1445.0</ele><time>2026-04-12T10:27:25Z</time></trkpt><trkpt lat="42.786040311090545" lon="13.590472781760244"><ele>1441.6666666666667</ele><time>2026-04-12T10:27:53.999Z</time></trkpt><trkpt lat="42.786126096728054" lon="13.590497346773816"><ele>1438.3333333333335</ele><time>2026-04-12T10:28:14.999Z</time></trkpt><trkpt lat="42.7861986046352" lon="13.59049594536645"><ele>1435.0</ele><time>2026-04-12T10:28:24.999Z</time></trkpt><trkpt lat="42.7862660476337" lon="13.590494778941396"><ele>1431.6666666666667</ele><time>2026-04-12T10:28:46Z</time></trkpt><trkpt lat="42.78633445353233" lon="13.590503604958561"><ele>1428.3333333333333</ele><time>2026-04-12T10:28:50Z</time></trkpt><trkpt lat="42.78640261255289" lon="13.590437598957514"><ele>1425.0</ele><time>2026-04-12T10:29:10Z</time></trkpt><trkpt lat="42.78646414361336" lon="13.590389551356704"><ele>1427.4285714285716</ele><time>2026-04-12T10:29:19Z</time></trkpt><trkpt lat="42.786485780440096" lon="13.590308665873469"><ele>1429.857142857143</ele><time>2026-04-12T10:29:28Z</time></trkpt><trkpt lat="42.78651771304087" lon="13.590224380483198"><ele>1432.2857142857142</ele><time>2026-04-12T10:29:42.999Z</time></trkpt><trkpt lat="42.786579658697775" lon="13.590196815714883"><ele>1434.7142857142858</ele><time>2026-04-12T10:29:48.999Z</time></trkpt><trkpt lat="42.78662434609124" lon="13.59012541187171"><ele>1437.142857142857</ele><time>2026-04-12T10:30:05.999Z</time></trkpt><trkpt lat="42.7866876882164" lon="13.59006049748778"><ele>1439.5714285714287</ele><time>2026-04-12T10:30:25.999Z</time></trkpt><trkpt lat="42.78675811518878" lon="13.590029461035057"><ele>1442.0</ele><time>2026-04-12T10:30:39.999Z</time></trkpt><trkpt lat="42.786821737812026" lon="13.590014364131068"><ele>1438.5</ele><time>2026-04-12T10:30:51Z</time></trkpt><trkpt lat="42.78693700821023" lon="13.589991296270938"><ele>1435.0</ele><time>2026-04-12T10:31:20Z</time></trkpt><trkpt lat="42.787029816004946" lon="13.589922872726158"><ele>1431.5</ele><time>2026-04-12T10:31:41Z</time></trkpt><trkpt lat="42.78708454525125" lon="13.58985910837228"><ele>1428.0</ele><time>2026-04-12T10:32:00.999Z</time></trkpt><trkpt lat="42.78715024311627" lon="13.58981285718946"><ele>1424.5</ele><time>2026-04-12T10:32:15.999Z</time></trkpt><trkpt lat="42.787210258208916" lon="13.589774822819303"><ele>1421.0</ele><time>2026-04-12T10:32:23.999Z</time></trkpt><trkpt lat="42.78726361726838" lon="13.589722738780345"><ele>1421.0</ele><time>2026-04-12T10:32:35.999Z</time></trkpt><trkpt lat="42.787315062888666" lon="13.589668550187614"><ele>1421.0</ele><time>2026-04-12T10:32:48.999Z</time></trkpt><trkpt lat="42.78740438286868" lon="13.589566946325457"><ele>1421.0</ele><time>2026-04-12T10:33:24Z</time></trkpt><trkpt lat="42.7874549022724" lon="13.589513727400844"><ele>1421.0</ele><time>2026-04-12T10:33:43Z</time></trkpt><trkpt lat="42.78746877228924" lon="13.589418885162884"><ele>1421.0</ele><time>2026-04-12T10:33:51.999Z</time></trkpt><trkpt lat="42.787578074888025" lon="13.589400224643287"><ele>1421.0</ele><time>2026-04-12T10:34:09.999Z</time></trkpt><trkpt lat="42.78765502256442" lon="13.589400354443995"><ele>1419.3333333333335</ele><time>2026-04-12T10:34:32.999Z</time></trkpt><trkpt lat="42.78770389368922" lon="13.589333247221724"><ele>1417.6666666666667</ele><time>2026-04-12T10:34:41.999Z</time></trkpt><trkpt lat="42.7877692288812" lon="13.589284805400403"><ele>1416.0</ele><time>2026-04-12T10:35:08Z</time></trkpt><trkpt lat="42.787830236338955" lon="13.589248289465207"><ele>1414.3333333333333</ele><time>2026-04-12T10:35:17Z</time></trkpt><trkpt lat="42.78789809307643" lon="13.589209229523368"><ele>1412.6666666666665</ele><time>2026-04-12T10:35:33Z</time></trkpt><trkpt lat="42.78796804988083" lon="13.589175259102838"><ele>1411.0</ele><time>2026-04-12T10:35:56.999Z</time></trkpt><trkpt lat="42.78807042905944" lon="13.589114875694708"><ele>1411.0000000000002</ele><time>2026-04-12T10:36:29.999Z</time></trkpt><trkpt lat="42.78815369932985" lon="13.589056580843131"><ele>1411.0</ele><time>2026-04-12T10:36:48.999Z</time></trkpt><trkpt lat="42.7882156740542" lon="13.589015140013974"><ele>1411.0</ele><time>2026-04-12T10:37:11Z</time></trkpt><trkpt lat="42.7882725872277" lon="13.588972894118692"><ele>1411.0</ele><time>2026-04-12T10:37:21Z</time></trkpt><trkpt lat="42.78832810882816" lon="13.588931397832743"><ele>1411.0</ele><time>2026-04-12T10:37:34Z</time></trkpt><trkpt lat="42.78838536883889" lon="13.588885846601345"><ele>1411.0000000000002</ele><time>2026-04-12T10:37:46Z</time></trkpt><trkpt lat="42.78844103164302" lon="13.58883973973399"><ele>1411.0</ele><time>2026-04-12T10:38:00Z</time></trkpt><trkpt lat="42.788495711176424" lon="13.588788345748831"><ele>1412.0000000000002</ele><time>2026-04-12T10:38:14.999Z</time></trkpt><trkpt lat="42.788548195575345" lon="13.588728482904878"><ele>1413.0</ele><time>2026-04-12T10:38:23.999Z</time></trkpt><trkpt lat="42.788499178014106" lon="13.588632556810465"><ele>1414.0</ele><time>2026-04-12T10:42:26.999Z</time></trkpt><trkpt lat="42.78856276307813" lon="13.588675738852936"><ele>1415.0</ele><time>2026-04-12T10:42:43.999Z</time></trkpt><trkpt lat="42.78862778360531" lon="13.588654345133248"><ele>1416.0</ele><time>2026-04-12T10:44:24.999Z</time></trkpt><trkpt lat="42.78866373677466" lon="13.588563068109442"><ele>1417.0000000000002</ele><time>2026-04-12T10:44:42.999Z</time></trkpt><trkpt lat="42.788663770829764" lon="13.588474739463297"><ele>1418.0</ele><time>2026-04-12T10:44:49.999Z</time></trkpt><trkpt lat="42.78862636577585" lon="13.588391787791902"><ele>1419.0</ele><time>2026-04-12T10:45:06.999Z</time></trkpt><trkpt lat="42.78857616200347" lon="13.588278432119031"><ele>1420.0</ele><time>2026-04-12T10:45:17.999Z</time></trkpt><trkpt lat="42.78854822828153" lon="13.588196958476576"><ele>1421.0</ele><time>2026-04-12T10:45:31Z</time></trkpt><trkpt lat="42.78853364171029" lon="13.588097979139194"><ele>1422.0</ele><time>2026-04-12T10:45:41Z</time></trkpt><trkpt lat="42.78856209156644" lon="13.587989927647376"><ele>1423.0</ele><time>2026-04-12T10:46:14Z</time></trkpt><trkpt lat="42.78848213552146" lon="13.587721143240755"><ele>1423.0</ele><time>2026-04-12T10:46:49.999Z</time></trkpt><trkpt lat="42.78848779520685" lon="13.587620734969294"><ele>1423.0</ele><time>2026-04-12T10:47:05.999Z</time></trkpt><trkpt lat="42.78842144185913" lon="13.587575390375783"><ele>1423.0</ele><time>2026-04-12T10:47:15.999Z</time></trkpt><trkpt lat="42.78842654738524" lon="13.587489690723261"><ele>1423.0</ele><time>2026-04-12T10:47:21.999Z</time></trkpt><trkpt lat="42.78836817127439" lon="13.587406643944309"><ele>1423.0</ele><time>2026-04-12T10:47:41Z</time></trkpt><trkpt lat="42.78832219395845" lon="13.58733109870609"><ele>1423.0</ele><time>2026-04-12T10:47:57Z</time></trkpt><trkpt lat="42.78829406555933" lon="13.587241115738891"><ele>1423.0</ele><time>2026-04-12T10:48:20Z</time></trkpt><trkpt lat="42.78835423579905" lon="13.58714872641286"><ele>1423.0</ele><time>2026-04-12T10:48:32Z</time></trkpt><trkpt lat="42.788327698703505" lon="13.587031631534945"><ele>1423.0</ele><time>2026-04-12T10:48:54.999Z</time></trkpt><trkpt lat="42.78831658462627" lon="13.58692994614781"><ele>1423.0</ele><time>2026-04-12T10:49:08.999Z</time></trkpt><trkpt lat="42.788360346284314" lon="13.586819776993712"><ele>1423.0</ele><time>2026-04-12T10:49:24.999Z</time></trkpt><trkpt lat="42.7883731389314" lon="13.586734727940035"><ele>1423.0</ele><time>2026-04-12T10:49:35.999Z</time></trkpt><trkpt lat="42.7883286713622" lon="13.586668882053198"><ele>1423.0</ele><time>2026-04-12T10:49:48Z</time></trkpt><trkpt lat="42.78826996332799" lon="13.586606010927612"><ele>1424.0</ele><time>2026-04-12T10:49:55Z</time></trkpt><trkpt lat="42.788191285525535" lon="13.586482282348495"><ele>1425.0</ele><time>2026-04-12T10:50:34Z</time></trkpt><trkpt lat="42.788203233073105" lon="13.586391686814041"><ele>1426.0</ele><time>2026-04-12T10:50:41Z</time></trkpt><trkpt lat="42.78817395686887" lon="13.586282099845633"><ele>1427.0</ele><time>2026-04-12T10:51:00.999Z</time></trkpt><trkpt lat="42.78816214023508" lon="13.586176502622628"><ele>1428.0</ele><time>2026-04-12T10:51:10.999Z</time></trkpt><trkpt lat="42.78811879418541" lon="13.586074071391476"><ele>1429.0</ele><time>2026-04-12T10:51:28.999Z</time></trkpt><trkpt lat="42.788081940533516" lon="13.585999049112255"><ele>1429.2857142857142</ele><time>2026-04-12T10:51:43.999Z</time></trkpt><trkpt lat="42.78802654651627" lon="13.585919797838402"><ele>1429.5714285714284</ele><time>2026-04-12T10:52:00Z</time></trkpt><trkpt lat="42.78793847261093" lon="13.585851918634999"><ele>1429.8571428571427</ele><time>2026-04-12T10:52:37Z</time></trkpt><trkpt lat="42.7879089658862" lon="13.585772465621526"><ele>1430.142857142857</ele><time>2026-04-12T10:53:28.999Z</time></trkpt><trkpt lat="42.78788886709659" lon="13.585686454261626"><ele>1430.4285714285713</ele><time>2026-04-12T10:53:59Z</time></trkpt><trkpt lat="42.787861228685905" lon="13.585607457909177"><ele>1430.7142857142856</ele><time>2026-04-12T10:54:15Z</time></trkpt><trkpt lat="42.78785589077781" lon="13.585514584635053"><ele>1431.0</ele><time>2026-04-12T10:54:31Z</time></trkpt><trkpt lat="42.78783586159548" lon="13.585433122787943"><ele>1431.4285714285713</ele><time>2026-04-12T10:55:35.999Z</time></trkpt><trkpt lat="42.787858142719" lon="13.585342946437045"><ele>1431.857142857143</ele><time>2026-04-12T10:56:01Z</time></trkpt><trkpt lat="42.78787712044718" lon="13.585261095469793"><ele>1432.2857142857142</ele><time>2026-04-12T10:56:11Z</time></trkpt><trkpt lat="42.78789438565956" lon="13.585173208095707"><ele>1432.7142857142858</ele><time>2026-04-12T10:56:22Z</time></trkpt><trkpt lat="42.78789307219709" lon="13.585084155244083"><ele>1433.142857142857</ele><time>2026-04-12T10:56:32Z</time></trkpt><trkpt lat="42.78790836667241" lon="13.584989959088642"><ele>1433.5714285714284</ele><time>2026-04-12T10:56:45Z</time></trkpt><trkpt lat="42.78789993275195" lon="13.58489287438148"><ele>1434.0</ele><time>2026-04-12T10:56:53.999Z</time></trkpt><trkpt lat="42.78788959195557" lon="13.584803908902737"><ele>1434.0</ele><time>2026-04-12T10:56:59.999Z</time></trkpt><trkpt lat="42.78789332856942" lon="13.584691473795068"><ele>1434.0</ele><time>2026-04-12T10:57:17.999Z</time></trkpt><trkpt lat="42.787915036855544" lon="13.584605305593424"><ele>1434.0</ele><time>2026-04-12T10:57:26.999Z</time></trkpt><trkpt lat="42.787888605535755" lon="13.58452179092172"><ele>1434.0</ele><time>2026-04-12T10:57:36.999Z</time></trkpt><trkpt lat="42.78789547615042" lon="13.584430344961586"><ele>1434.0</ele><time>2026-04-12T10:57:49.999Z</time></trkpt><trkpt lat="42.787936931995986" lon="13.584330166649332"><ele>1434.0</ele><time>2026-04-12T10:58:02.998Z</time></trkpt><trkpt lat="42.78796522991227" lon="13.584244214429539"><ele>1434.0</ele><time>2026-04-12T10:58:31Z</time></trkpt><trkpt lat="42.787940027379456" lon="13.584156896801337"><ele>1435.0</ele><time>2026-04-12T10:58:50Z</time></trkpt><trkpt lat="42.787939400341806" lon="13.58406946248753"><ele>1435.0</ele><time>2026-04-12T10:59:24.999Z</time></trkpt><trkpt lat="42.78800526392451" lon="13.584046189037144"><ele>1435.0</ele><time>2026-04-12T10:59:31.999Z</time></trkpt><trkpt lat="42.78806254719256" lon="13.583996650817026"><ele>1435.0</ele><time>2026-04-12T10:59:38.999Z</time></trkpt><trkpt lat="42.788124303853216" lon="13.583961716950826"><ele>1435.0</ele><time>2026-04-12T11:00:11Z</time></trkpt><trkpt lat="42.78820354542042" lon="13.58392232905416"><ele>1435.0</ele><time>2026-04-12T11:00:24Z</time></trkpt></trkseg><trkseg><trkpt lat="42.787872087250264" lon="13.583538271499409"><ele>1437.9999999999998</ele><time>2026-04-12T11:27:19.985Z</time></trkpt><trkpt lat="42.78783778808668" lon="13.583458979975692"><ele>1438.0</ele><time>2026-04-12T11:27:31.001Z</time></trkpt><trkpt lat="42.78780891846464" lon="13.583379116583671"><ele>1438.0</ele><time>2026-04-12T11:27:40Z</time></trkpt><trkpt lat="42.78774151726791" lon="13.583360199810647"><ele>1438.0</ele><time>2026-04-12T11:27:50Z</time></trkpt><trkpt lat="42.78767469764462" lon="13.58335017492313"><ele>1438.0</ele><time>2026-04-12T11:27:58Z</time></trkpt><trkpt lat="42.78761497905968" lon="13.583317596825092"><ele>1437.9999999999998</ele><time>2026-04-12T11:28:05.999Z</time></trkpt><trkpt lat="42.78754771662189" lon="13.583282492459595"><ele>1438.0</ele><time>2026-04-12T11:28:15.999Z</time></trkpt><trkpt lat="42.7875217340313" lon="13.583193999980493"><ele>1437.8571428571427</ele><time>2026-04-12T11:28:22.999Z</time></trkpt><trkpt lat="42.787492242609304" lon="13.583105670614032"><ele>1437.7142857142858</ele><time>2026-04-12T11:28:31.999Z</time></trkpt><trkpt lat="42.78748510305886" lon="13.583018146519276"><ele>1437.5714285714284</ele><time>2026-04-12T11:28:38.999Z</time></trkpt><trkpt lat="42.787472772642275" lon="13.582923608228267"><ele>1437.4285714285713</ele><time>2026-04-12T11:28:45.999Z</time></trkpt><trkpt lat="42.78744970741156" lon="13.582843027428074"><ele>1437.2857142857142</ele><time>2026-04-12T11:28:58.998Z</time></trkpt><trkpt lat="42.78747642478448" lon="13.582762295988747"><ele>1437.142857142857</ele><time>2026-04-12T11:29:06.998Z</time></trkpt><trkpt lat="42.78752329871233" lon="13.582699282505088"><ele>1437.0</ele><time>2026-04-12T11:29:23.998Z</time></trkpt><trkpt lat="42.78751564566477" lon="13.582603716903064"><ele>1436.5714285714287</ele><time>2026-04-12T11:29:41Z</time></trkpt><trkpt lat="42.787485924306395" lon="13.58251565298025"><ele>1436.142857142857</ele><time>2026-04-12T11:29:54Z</time></trkpt><trkpt lat="42.78750212300824" lon="13.58242997101591"><ele>1435.7142857142858</ele><time>2026-04-12T11:30:05.999Z</time></trkpt><trkpt lat="42.78752613258441" lon="13.582344056111886"><ele>1435.2857142857142</ele><time>2026-04-12T11:30:13.999Z</time></trkpt><trkpt lat="42.78754575286505" lon="13.582262215247187"><ele>1434.8571428571427</ele><time>2026-04-12T11:30:21.999Z</time></trkpt><trkpt lat="42.7875696937735" lon="13.582175952282052"><ele>1434.4285714285713</ele><time>2026-04-12T11:30:29.999Z</time></trkpt><trkpt lat="42.787588607034124" lon="13.582084389669381"><ele>1434.0</ele><time>2026-04-12T11:30:38.999Z</time></trkpt><trkpt lat="42.787608958805535" lon="13.581992566164738"><ele>1433.2857142857142</ele><time>2026-04-12T11:30:47.999Z</time></trkpt><trkpt lat="42.78762361222623" lon="13.581907424307465"><ele>1432.5714285714284</ele><time>2026-04-12T11:30:55.998Z</time></trkpt><trkpt lat="42.78763901554051" lon="13.58182061331735"><ele>1431.857142857143</ele><time>2026-04-12T11:31:03.998Z</time></trkpt><trkpt lat="42.78764390745065" lon="13.581727360524248"><ele>1431.142857142857</ele><time>2026-04-12T11:31:11.998Z</time></trkpt><trkpt lat="42.787646172974554" lon="13.581628099946652"><ele>1430.4285714285713</ele><time>2026-04-12T11:31:19.998Z</time></trkpt><trkpt lat="42.78759653907291" lon="13.5815672973409"><ele>1429.7142857142858</ele><time>2026-04-12T11:31:29.998Z</time></trkpt><trkpt lat="42.78756048332253" lon="13.581482548024079"><ele>1429.0</ele><time>2026-04-12T11:32:10Z</time></trkpt><trkpt lat="42.78755983940327" lon="13.581390737283824"><ele>1429.0</ele><time>2026-04-12T11:32:20.999Z</time></trkpt><trkpt lat="42.78750248343711" lon="13.581345263898069"><ele>1429.0</ele><time>2026-04-12T11:32:47.999Z</time></trkpt><trkpt lat="42.7875927219209" lon="13.581239542565976"><ele>1429.0</ele><time>2026-04-12T11:34:19.999Z</time></trkpt><trkpt lat="42.78757251120557" lon="13.581149657094581"><ele>1429.0</ele><time>2026-04-12T11:34:30.999Z</time></trkpt><trkpt lat="42.78758474430884" lon="13.581061783141369"><ele>1429.0</ele><time>2026-04-12T11:34:40.999Z</time></trkpt><trkpt lat="42.78760258726996" lon="13.58097355380384"><ele>1429.0</ele><time>2026-04-12T11:34:49.999Z</time></trkpt><trkpt lat="42.787600615819954" lon="13.58087892673772"><ele>1429.0</ele><time>2026-04-12T11:35:04.999Z</time></trkpt><trkpt lat="42.7876088374367" lon="13.580788179026245"><ele>1429.0</ele><time>2026-04-12T11:35:14.998Z</time></trkpt><trkpt lat="42.78760502499587" lon="13.580692319227671"><ele>1429.0</ele><time>2026-04-12T11:35:24.998Z</time></trkpt><trkpt lat="42.78759353400567" lon="13.580605928340484"><ele>1429.0</ele><time>2026-04-12T11:35:33.998Z</time></trkpt><trkpt lat="42.78760441344081" lon="13.580515119420609"><ele>1429.0</ele><time>2026-04-12T11:35:47Z</time></trkpt><trkpt lat="42.787611862822565" lon="13.580422556431268"><ele>1429.0</ele><time>2026-04-12T11:35:58Z</time></trkpt><trkpt lat="42.78762027341101" lon="13.580330452044723"><ele>1429.0</ele><time>2026-04-12T11:36:31.999Z</time></trkpt><trkpt lat="42.78762531015465" lon="13.58023830992032"><ele>1429.0</ele><time>2026-04-12T11:36:54.999Z</time></trkpt><trkpt lat="42.7876239050826" lon="13.580143471374504"><ele>1429.0</ele><time>2026-04-12T11:37:05.999Z</time></trkpt><trkpt lat="42.78760742876709" lon="13.580053651194914"><ele>1429.0</ele><time>2026-04-12T11:37:17.999Z</time></trkpt><trkpt lat="42.78757961158503" lon="13.579976335841646"><ele>1429.0</ele><time>2026-04-12T11:37:28.998Z</time></trkpt><trkpt lat="42.787562388283376" lon="13.579886559883606"><ele>1429.0</ele><time>2026-04-12T11:37:39.998Z</time></trkpt><trkpt lat="42.787551074620424" lon="13.579800743748594"><ele>1429.0</ele><time>2026-04-12T11:37:52Z</time></trkpt><trkpt lat="42.78754122558588" lon="13.579709087672345"><ele>1429.0</ele><time>2026-04-12T11:38:03Z</time></trkpt><trkpt lat="42.78753330373672" lon="13.579622590649926"><ele>1429.0</ele><time>2026-04-12T11:38:13Z</time></trkpt><trkpt lat="42.78752856679853" lon="13.579532257217316"><ele>1429.0</ele><time>2026-04-12T11:38:22Z</time></trkpt><trkpt lat="42.78752256843494" lon="13.57943658577181"><ele>1429.0</ele><time>2026-04-12T11:38:39.999Z</time></trkpt><trkpt lat="42.787546006376985" lon="13.579347832276522"><ele>1429.0</ele><time>2026-04-12T11:38:51.999Z</time></trkpt><trkpt lat="42.78751840482824" lon="13.579268061759176"><ele>1429.0</ele><time>2026-04-12T11:39:04.999Z</time></trkpt><trkpt lat="42.78748846456939" lon="13.57918553936007"><ele>1429.0</ele><time>2026-04-12T11:39:13.999Z</time></trkpt><trkpt lat="42.78746549617765" lon="13.579104757476752"><ele>1429.0</ele><time>2026-04-12T11:39:23.998Z</time></trkpt><trkpt lat="42.78744791761435" lon="13.579019010212086"><ele>1428.4285714285716</ele><time>2026-04-12T11:39:36.998Z</time></trkpt><trkpt lat="42.78744920613782" lon="13.57892979566627"><ele>1427.857142857143</ele><time>2026-04-12T11:39:51.998Z</time></trkpt><trkpt lat="42.787452564613844" lon="13.578838521105256"><ele>1427.2857142857142</ele><time>2026-04-12T11:41:38.998Z</time></trkpt><trkpt lat="42.787436152010656" lon="13.578749954083593"><ele>1426.7142857142858</ele><time>2026-04-12T11:41:49.998Z</time></trkpt><trkpt lat="42.787417411253834" lon="13.578665986602157"><ele>1426.142857142857</ele><time>2026-04-12T11:41:59.998Z</time></trkpt><trkpt lat="42.787383334114715" lon="13.578593315818962"><ele>1425.5714285714287</ele><time>2026-04-12T11:42:10Z</time></trkpt><trkpt lat="42.7873551852747" lon="13.578512308338913"><ele>1425.0</ele><time>2026-04-12T11:42:26Z</time></trkpt><trkpt lat="42.78731946530897" lon="13.578436646188704"><ele>1424.4285714285716</ele><time>2026-04-12T11:42:50.999Z</time></trkpt><trkpt lat="42.7872805929629" lon="13.57836067430129"><ele>1423.857142857143</ele><time>2026-04-12T11:43:00.999Z</time></trkpt><trkpt lat="42.78722990167408" lon="13.578305444978401"><ele>1423.2857142857142</ele><time>2026-04-12T11:43:09.999Z</time></trkpt><trkpt lat="42.7871890902284" lon="13.578188848398623"><ele>1422.7142857142858</ele><time>2026-04-12T11:45:52.998Z</time></trkpt><trkpt lat="42.787159237408694" lon="13.578112477783701"><ele>1422.142857142857</ele><time>2026-04-12T11:46:05.998Z</time></trkpt><trkpt lat="42.787121423398276" lon="13.578030183169139"><ele>1421.5714285714287</ele><time>2026-04-12T11:46:16Z</time></trkpt><trkpt lat="42.787087040626446" lon="13.577955413115163"><ele>1421.0</ele><time>2026-04-12T11:46:25Z</time></trkpt><trkpt lat="42.78705311033015" lon="13.577875442530914"><ele>1420.142857142857</ele><time>2026-04-12T11:46:33Z</time></trkpt><trkpt lat="42.787021910414616" lon="13.577789996485354"><ele>1419.2857142857142</ele><time>2026-04-12T11:46:45Z</time></trkpt><trkpt lat="42.78699041756322" lon="13.577703341971135"><ele>1418.4285714285716</ele><time>2026-04-12T11:46:57.999Z</time></trkpt><trkpt lat="42.78696033184921" lon="13.577627507353585"><ele>1417.5714285714284</ele><time>2026-04-12T11:47:07.999Z</time></trkpt><trkpt lat="42.78692655683948" lon="13.577547663837114"><ele>1416.7142857142858</ele><time>2026-04-12T11:47:15.999Z</time></trkpt><trkpt lat="42.78689553247605" lon="13.5774698970329"><ele>1415.857142857143</ele><time>2026-04-12T11:47:24.999Z</time></trkpt><trkpt lat="42.78686545568257" lon="13.577388298807945"><ele>1415.0</ele><time>2026-04-12T11:47:34.999Z</time></trkpt><trkpt lat="42.78683888249865" lon="13.577289767264336"><ele>1414.4285714285716</ele><time>2026-04-12T11:47:42.999Z</time></trkpt><trkpt lat="42.78686258321058" lon="13.577203791972732"><ele>1413.857142857143</ele><time>2026-04-12T11:47:49.998Z</time></trkpt><trkpt lat="42.78691277551781" lon="13.57714550236602"><ele>1413.2857142857142</ele><time>2026-04-12T11:47:53.998Z</time></trkpt><trkpt lat="42.786962380446845" lon="13.577074475481684"><ele>1412.7142857142858</ele><time>2026-04-12T11:47:59.998Z</time></trkpt><trkpt lat="42.78698105657118" lon="13.57698516203749"><ele>1412.142857142857</ele><time>2026-04-12T11:48:06.998Z</time></trkpt><trkpt lat="42.787018990821416" lon="13.576915718462697"><ele>1411.5714285714287</ele><time>2026-04-12T11:48:13.998Z</time></trkpt><trkpt lat="42.787041165729875" lon="13.576834481309655"><ele>1411.0</ele><time>2026-04-12T11:48:21Z</time></trkpt><trkpt lat="42.78707090940148" lon="13.576755984142865"><ele>1410.7142857142858</ele><time>2026-04-12T11:48:28Z</time></trkpt><trkpt lat="42.78709908729182" lon="13.5766713072827"><ele>1410.4285714285716</ele><time>2026-04-12T11:48:35Z</time></trkpt><trkpt lat="42.78714543918159" lon="13.576605150920493"><ele>1410.1428571428573</ele><time>2026-04-12T11:48:43Z</time></trkpt><trkpt lat="42.78720762806039" lon="13.576565864206566"><ele>1409.857142857143</ele><time>2026-04-12T11:48:54Z</time></trkpt><trkpt lat="42.78724151676994" lon="13.576485642315822"><ele>1409.5714285714284</ele><time>2026-04-12T11:49:01.999Z</time></trkpt><trkpt lat="42.78728796736019" lon="13.576419226223592"><ele>1409.2857142857144</ele><time>2026-04-12T11:49:08.999Z</time></trkpt><trkpt lat="42.787341347784164" lon="13.576364457715636"><ele>1409.0</ele><time>2026-04-12T11:49:16.999Z</time></trkpt><trkpt lat="42.78740799153867" lon="13.57635553885318"><ele>1409.0</ele><time>2026-04-12T11:49:23.999Z</time></trkpt><trkpt lat="42.78747072466578" lon="13.576337688737933"><ele>1409.0</ele><time>2026-04-12T11:49:33.999Z</time></trkpt><trkpt lat="42.78754001549755" lon="13.57630176698352"><ele>1409.0</ele><time>2026-04-12T11:49:44.999Z</time></trkpt><trkpt lat="42.787605030737375" lon="13.576272316647056"><ele>1409.0</ele><time>2026-04-12T11:49:52.998Z</time></trkpt><trkpt lat="42.78767243859103" lon="13.576260349179405"><ele>1409.0</ele><time>2026-04-12T11:50:03.998Z</time></trkpt><trkpt lat="42.78773682414027" lon="13.576234942123396"><ele>1409.0</ele><time>2026-04-12T11:50:15.998Z</time></trkpt><trkpt lat="42.787801001207136" lon="13.576216040359954"><ele>1409.0</ele><time>2026-04-12T11:50:29Z</time></trkpt><trkpt lat="42.78786256956433" lon="13.576194114303586"><ele>1405.857142857143</ele><time>2026-04-12T11:50:41Z</time></trkpt><trkpt lat="42.7879227459621" lon="13.576167006963146"><ele>1402.7142857142856</ele><time>2026-04-12T11:50:50Z</time></trkpt><trkpt lat="42.787976973913246" lon="13.576121593380558"><ele>1399.5714285714284</ele><time>2026-04-12T11:51:03Z</time></trkpt><trkpt lat="42.78803531265301" lon="13.5760749481693"><ele>1396.4285714285716</ele><time>2026-04-12T11:51:16.999Z</time></trkpt><trkpt lat="42.788084607296476" lon="13.576019427641489"><ele>1393.2857142857142</ele><time>2026-04-12T11:51:27.999Z</time></trkpt><trkpt lat="42.788135170190436" lon="13.575962478722076"><ele>1390.142857142857</ele><time>2026-04-12T11:51:40.999Z</time></trkpt><trkpt lat="42.78818552095722" lon="13.575904586479398"><ele>1387.0</ele><time>2026-04-12T11:51:55.999Z</time></trkpt><trkpt lat="42.78823521085442" lon="13.575846672870364"><ele>1387.0</ele><time>2026-04-12T11:52:07.998Z</time></trkpt><trkpt lat="42.788288177740654" lon="13.575791335544707"><ele>1387.0</ele><time>2026-04-12T11:52:19.998Z</time></trkpt><trkpt lat="42.78834113766703" lon="13.575740494211367"><ele>1387.0</ele><time>2026-04-12T11:52:31.998Z</time></trkpt><trkpt lat="42.78839439414936" lon="13.575689367914958"><ele>1387.0</ele><time>2026-04-12T11:52:47Z</time></trkpt><trkpt lat="42.788450439219766" lon="13.575635564664179"><ele>1387.0</ele><time>2026-04-12T11:52:57Z</time></trkpt><trkpt lat="42.788510340203416" lon="13.575577595687504"><ele>1387.0</ele><time>2026-04-12T11:53:08Z</time></trkpt><trkpt lat="42.78858014663681" lon="13.575574417581558"><ele>1387.0</ele><time>2026-04-12T11:53:16.999Z</time></trkpt><trkpt lat="42.78864192491134" lon="13.575627969124831"><ele>1385.0</ele><time>2026-04-12T11:53:21.999Z</time></trkpt><trkpt lat="42.78870773819916" lon="13.57562965215905"><ele>1383.0</ele><time>2026-04-12T11:53:29.999Z</time></trkpt><trkpt lat="42.788770732983764" lon="13.575593896618724"><ele>1381.0</ele><time>2026-04-12T11:53:40.999Z</time></trkpt><trkpt lat="42.788823786747315" lon="13.575540724821"><ele>1379.0</ele><time>2026-04-12T11:53:51.999Z</time></trkpt><trkpt lat="42.78888420325368" lon="13.57551069722222"><ele>1377.0</ele><time>2026-04-12T11:54:01.998Z</time></trkpt><trkpt lat="42.78894328781307" lon="13.57546707552156"><ele>1375.0</ele><time>2026-04-12T11:54:12.998Z</time></trkpt><trkpt lat="42.78900630856995" lon="13.575430231824622"><ele>1373.0</ele><time>2026-04-12T11:54:21.998Z</time></trkpt><trkpt lat="42.7890665260475" lon="13.57538852318262"><ele>1372.4285714285716</ele><time>2026-04-12T11:54:33.998Z</time></trkpt><trkpt lat="42.78912157302418" lon="13.575331457438587"><ele>1371.857142857143</ele><time>2026-04-12T11:54:44Z</time></trkpt><trkpt lat="42.78917272477839" lon="13.575279931459903"><ele>1371.2857142857142</ele><time>2026-04-12T11:54:53Z</time></trkpt><trkpt lat="42.78923051564528" lon="13.57524419230656"><ele>1370.7142857142858</ele><time>2026-04-12T11:55:03Z</time></trkpt><trkpt lat="42.78929351415944" lon="13.575189204403658"><ele>1370.142857142857</ele><time>2026-04-12T11:55:13Z</time></trkpt><trkpt lat="42.78934863061198" lon="13.575137563860041"><ele>1369.5714285714287</ele><time>2026-04-12T11:55:20.999Z</time></trkpt><trkpt lat="42.78939966384492" lon="13.575078006664402"><ele>1369.0</ele><time>2026-04-12T11:55:33.999Z</time></trkpt><trkpt lat="42.78945611132931" lon="13.575030617134198"><ele>1366.5714285714287</ele><time>2026-04-12T11:55:43.999Z</time></trkpt><trkpt lat="42.78951899079412" lon="13.574989280442407"><ele>1364.142857142857</ele><time>2026-04-12T11:55:54.999Z</time></trkpt><trkpt lat="42.789574662299486" lon="13.574944982558657"><ele>1361.7142857142858</ele><time>2026-04-12T11:56:04.999Z</time></trkpt><trkpt lat="42.78962958372901" lon="13.574900965103692"><ele>1359.2857142857142</ele><time>2026-04-12T11:56:12.998Z</time></trkpt><trkpt lat="42.78968933854996" lon="13.574843484587769"><ele>1356.857142857143</ele><time>2026-04-12T11:56:22.998Z</time></trkpt><trkpt lat="42.78974904963334" lon="13.57480854173275"><ele>1354.4285714285716</ele><time>2026-04-12T11:56:31.998Z</time></trkpt><trkpt lat="42.78980827249693" lon="13.574775269008898"><ele>1352.0</ele><time>2026-04-12T11:56:40.998Z</time></trkpt><trkpt lat="42.78986620650953" lon="13.57473591085328"><ele>1352.0</ele><time>2026-04-12T11:56:49Z</time></trkpt><trkpt lat="42.78992279246627" lon="13.574695278970319"><ele>1352.0</ele><time>2026-04-12T11:56:57Z</time></trkpt><trkpt lat="42.789982302821755" lon="13.57466617364164"><ele>1352.0</ele><time>2026-04-12T11:57:05Z</time></trkpt><trkpt lat="42.79004254417809" lon="13.574624494458467"><ele>1352.0</ele><time>2026-04-12T11:57:13Z</time></trkpt><trkpt lat="42.79010608050264" lon="13.574575192965233"><ele>1352.0</ele><time>2026-04-12T11:57:22Z</time></trkpt><trkpt lat="42.79017606391437" lon="13.574562208012662"><ele>1352.0</ele><time>2026-04-12T11:57:31.999Z</time></trkpt><trkpt lat="42.79024274377219" lon="13.574546278691324"><ele>1352.0</ele><time>2026-04-12T11:57:41.999Z</time></trkpt><trkpt lat="42.790309422287145" lon="13.574535591641498"><ele>1350.0</ele><time>2026-04-12T11:57:51.999Z</time></trkpt><trkpt lat="42.79036811534571" lon="13.574568780571282"><ele>1348.0</ele><time>2026-04-12T11:58:01.999Z</time></trkpt><trkpt lat="42.79043411693784" lon="13.574569517552312"><ele>1346.0</ele><time>2026-04-12T11:58:08.999Z</time></trkpt><trkpt lat="42.79049007487686" lon="13.574525076441493"><ele>1344.0</ele><time>2026-04-12T11:58:15.999Z</time></trkpt><trkpt lat="42.79054024638048" lon="13.574458164271329"><ele>1342.0</ele><time>2026-04-12T11:58:22.998Z</time></trkpt><trkpt lat="42.79059683208199" lon="13.57441385388992"><ele>1340.0</ele><time>2026-04-12T11:58:30.998Z</time></trkpt><trkpt lat="42.79066056619497" lon="13.574415182267423"><ele>1338.0</ele><time>2026-04-12T11:58:40.998Z</time></trkpt><trkpt lat="42.79072482649778" lon="13.574402128912382"><ele>1337.7142857142858</ele><time>2026-04-12T11:58:47.998Z</time></trkpt><trkpt lat="42.79077853672609" lon="13.574355748754735"><ele>1337.4285714285713</ele><time>2026-04-12T11:58:57Z</time></trkpt><trkpt lat="42.790838618432275" lon="13.57431016047532"><ele>1337.142857142857</ele><time>2026-04-12T11:59:11Z</time></trkpt><trkpt lat="42.7909035031301" lon="13.57429364137794"><ele>1336.857142857143</ele><time>2026-04-12T11:59:22Z</time></trkpt><trkpt lat="42.79096265897231" lon="13.574263288176082"><ele>1336.5714285714287</ele><time>2026-04-12T11:59:29.999Z</time></trkpt><trkpt lat="42.7910272297202" lon="13.574239798502214"><ele>1336.2857142857142</ele><time>2026-04-12T12:00:19.998Z</time></trkpt><trkpt lat="42.79108489025614" lon="13.57419378067174"><ele>1336.0</ele><time>2026-04-12T12:00:33.998Z</time></trkpt><trkpt lat="42.791113575706184" lon="13.574110778401835"><ele>1334.0</ele><time>2026-04-12T12:00:45.998Z</time></trkpt><trkpt lat="42.79116425709544" lon="13.574053046046538"><ele>1332.0</ele><time>2026-04-12T12:00:55.998Z</time></trkpt><trkpt lat="42.79121725494838" lon="13.574004814654813"><ele>1330.0</ele><time>2026-04-12T12:01:06Z</time></trkpt><trkpt lat="42.79126981455588" lon="13.573953734921751"><ele>1328.0</ele><time>2026-04-12T12:01:14Z</time></trkpt><trkpt lat="42.79131911963257" lon="13.573894098390378"><ele>1326.0</ele><time>2026-04-12T12:01:23Z</time></trkpt><trkpt lat="42.791370037642054" lon="13.573839241800025"><ele>1324.0</ele><time>2026-04-12T12:01:33Z</time></trkpt><trkpt lat="42.79141979335202" lon="13.573780406916821"><ele>1322.0</ele><time>2026-04-12T12:01:40.999Z</time></trkpt><trkpt lat="42.79146053688711" lon="13.573705834612145"><ele>1322.0</ele><time>2026-04-12T12:01:48.999Z</time></trkpt><trkpt lat="42.791500834072274" lon="13.57363766245462"><ele>1322.0</ele><time>2026-04-12T12:02:00.999Z</time></trkpt><trkpt lat="42.79155750884045" lon="13.573579652814884"><ele>1322.0</ele><time>2026-04-12T12:03:03Z</time></trkpt><trkpt lat="42.79163013370446" lon="13.573555663509245"><ele>1322.0</ele><time>2026-04-12T12:03:21Z</time></trkpt><trkpt lat="42.79169275322129" lon="13.573526863923655"><ele>1322.0</ele><time>2026-04-12T12:03:33Z</time></trkpt><trkpt lat="42.79176301385161" lon="13.573518104746322"><ele>1322.0</ele><time>2026-04-12T12:03:41.999Z</time></trkpt><trkpt lat="42.79182724000306" lon="13.57349886716951"><ele>1322.0</ele><time>2026-04-12T12:03:50.999Z</time></trkpt><trkpt lat="42.791873895719306" lon="13.573433636069147"><ele>1319.7142857142858</ele><time>2026-04-12T12:03:58.999Z</time></trkpt><trkpt lat="42.791891990009276" lon="13.57335028033946"><ele>1317.4285714285716</ele><time>2026-04-12T12:04:04.999Z</time></trkpt><trkpt lat="42.79194223937983" lon="13.573290384229443"><ele>1315.1428571428573</ele><time>2026-04-12T12:04:12.999Z</time></trkpt><trkpt lat="42.79200371706136" lon="13.573249084903118"><ele>1312.857142857143</ele><time>2026-04-12T12:04:18.999Z</time></trkpt><trkpt lat="42.792067979649254" lon="13.573241302879357"><ele>1310.5714285714287</ele><time>2026-04-12T12:04:26.999Z</time></trkpt><trkpt lat="42.79213140015834" lon="13.573208693192875"><ele>1308.2857142857144</ele><time>2026-04-12T12:04:33.999Z</time></trkpt><trkpt lat="42.79219980360764" lon="13.573164317990907"><ele>1306.0</ele><time>2026-04-12T12:04:41.998Z</time></trkpt><trkpt lat="42.79225220690586" lon="13.573115655020468"><ele>1306.0000000000002</ele><time>2026-04-12T12:04:48.998Z</time></trkpt><trkpt lat="42.792318039279785" lon="13.573076829345894"><ele>1306.0</ele><time>2026-04-12T12:04:57.998Z</time></trkpt><trkpt lat="42.792382124124295" lon="13.573040575177039"><ele>1306.0</ele><time>2026-04-12T12:05:05.998Z</time></trkpt><trkpt lat="42.79244449639188" lon="13.572998956573286"><ele>1306.0</ele><time>2026-04-12T12:05:15Z</time></trkpt><trkpt lat="42.79250835898633" lon="13.572968589653515"><ele>1306.0</ele><time>2026-04-12T12:05:22Z</time></trkpt><trkpt lat="42.792568821451034" lon="13.572933321409701"><ele>1306.0000000000002</ele><time>2026-04-12T12:05:29Z</time></trkpt><trkpt lat="42.792623464824544" lon="13.572876716935882"><ele>1306.0</ele><time>2026-04-12T12:05:36Z</time></trkpt><trkpt lat="42.79268322439169" lon="13.57284332985008"><ele>1303.7142857142858</ele><time>2026-04-12T12:05:43Z</time></trkpt><trkpt lat="42.792747301573876" lon="13.572820684986864"><ele>1301.4285714285716</ele><time>2026-04-12T12:05:49.999Z</time></trkpt><trkpt lat="42.79280438851611" lon="13.572783058115842"><ele>1299.1428571428573</ele><time>2026-04-12T12:05:57.999Z</time></trkpt><trkpt lat="42.79285995442228" lon="13.5727342466865"><ele>1296.857142857143</ele><time>2026-04-12T12:06:04.999Z</time></trkpt><trkpt lat="42.79292492819686" lon="13.572694731572682"><ele>1294.5714285714284</ele><time>2026-04-12T12:06:12.999Z</time></trkpt><trkpt lat="42.792991062693915" lon="13.572650165658262"><ele>1292.2857142857144</ele><time>2026-04-12T12:06:19.999Z</time></trkpt><trkpt lat="42.793052900243886" lon="13.572632262782912"><ele>1290.0</ele><time>2026-04-12T12:06:27.999Z</time></trkpt><trkpt lat="42.79311272894989" lon="13.572598565131202"><ele>1290.0</ele><time>2026-04-12T12:06:34.999Z</time></trkpt><trkpt lat="42.793177513416204" lon="13.572579365813915"><ele>1290.0</ele><time>2026-04-12T12:06:41.998Z</time></trkpt><trkpt lat="42.79324691910964" lon="13.572568220746176"><ele>1290.0</ele><time>2026-04-12T12:06:50.998Z</time></trkpt><trkpt lat="42.7933168754923" lon="13.572577214318077"><ele>1290.0</ele><time>2026-04-12T12:06:58.998Z</time></trkpt><trkpt lat="42.79338344315278" lon="13.572554823606582"><ele>1290.0</ele><time>2026-04-12T12:07:06.998Z</time></trkpt><trkpt lat="42.7934612266142" lon="13.57253097501962"><ele>1290.0</ele><time>2026-04-12T12:07:16Z</time></trkpt><trkpt lat="42.793526498985976" lon="13.572530648548977"><ele>1290.0</ele><time>2026-04-12T12:07:23Z</time></trkpt><trkpt lat="42.79359272399087" lon="13.572540254531452"><ele>1286.2857142857144</ele><time>2026-04-12T12:07:30Z</time></trkpt><trkpt lat="42.79364823327543" lon="13.572485373157928"><ele>1282.5714285714284</ele><time>2026-04-12T12:07:38Z</time></trkpt><trkpt lat="42.793701042807385" lon="13.572437681635739"><ele>1278.857142857143</ele><time>2026-04-12T12:07:45Z</time></trkpt><trkpt lat="42.793777007476606" lon="13.572416348337766"><ele>1275.1428571428573</ele><time>2026-04-12T12:09:51Z</time></trkpt><trkpt lat="42.7938444213882" lon="13.572403813463184"><ele>1271.4285714285716</ele><time>2026-04-12T12:10:03.999Z</time></trkpt><trkpt lat="42.79390638268269" lon="13.572365313380498"><ele>1267.7142857142858</ele><time>2026-04-12T12:10:13.999Z</time></trkpt><trkpt lat="42.793962208020965" lon="13.57232462027684"><ele>1264.0</ele><time>2026-04-12T12:10:22.999Z</time></trkpt><trkpt lat="42.79401071552695" lon="13.572260070809277"><ele>1264.0000000000002</ele><time>2026-04-12T12:10:31.999Z</time></trkpt><trkpt lat="42.79407153413076" lon="13.57223730692142"><ele>1264.0</ele><time>2026-04-12T12:10:41.999Z</time></trkpt><trkpt lat="42.7941376800052" lon="13.572237475698286"><ele>1264.0</ele><time>2026-04-12T12:10:53.998Z</time></trkpt><trkpt lat="42.79420130494944" lon="13.572197140416266"><ele>1264.0</ele><time>2026-04-12T12:11:04.998Z</time></trkpt><trkpt lat="42.794262892701276" lon="13.572157988986365"><ele>1264.0</ele><time>2026-04-12T12:11:14.998Z</time></trkpt><trkpt lat="42.794318056358314" lon="13.572101436566081"><ele>1264.0000000000002</ele><time>2026-04-12T12:11:31Z</time></trkpt><trkpt lat="42.79435361983251" lon="13.572023243209594"><ele>1264.0</ele><time>2026-04-12T12:11:39Z</time></trkpt><trkpt lat="42.794407611431495" lon="13.571978152534157"><ele>1260.5714285714287</ele><time>2026-04-12T12:11:46Z</time></trkpt><trkpt lat="42.794457315275785" lon="13.571916069709602"><ele>1257.142857142857</ele><time>2026-04-12T12:11:54Z</time></trkpt><trkpt lat="42.794517920623036" lon="13.57188680312365"><ele>1253.7142857142858</ele><time>2026-04-12T12:12:04Z</time></trkpt><trkpt lat="42.79458050356354" lon="13.57184568486124"><ele>1250.2857142857142</ele><time>2026-04-12T12:12:12.999Z</time></trkpt><trkpt lat="42.79463969788785" lon="13.571813555369753"><ele>1246.857142857143</ele><time>2026-04-12T12:12:20.999Z</time></trkpt><trkpt lat="42.79470275690046" lon="13.571782345331494"><ele>1243.4285714285716</ele><time>2026-04-12T12:12:29.999Z</time></trkpt><trkpt lat="42.79476415576434" lon="13.57175284198616"><ele>1240.0</ele><time>2026-04-12T12:12:37.999Z</time></trkpt><trkpt lat="42.794827110813706" lon="13.571738352164246"><ele>1240.0</ele><time>2026-04-12T12:12:45.999Z</time></trkpt><trkpt lat="42.794896492339646" lon="13.571731527442802"><ele>1240.0</ele><time>2026-04-12T12:12:55.999Z</time></trkpt><trkpt lat="42.79496017053815" lon="13.571735871263378"><ele>1240.0</ele><time>2026-04-12T12:13:03.998Z</time></trkpt><trkpt lat="42.795027857982575" lon="13.571732137758506"><ele>1240.0</ele><time>2026-04-12T12:13:12.998Z</time></trkpt><trkpt lat="42.7950920753985" lon="13.571734924979738"><ele>1240.0</ele><time>2026-04-12T12:13:21.998Z</time></trkpt><trkpt lat="42.79514474414611" lon="13.571677469109055"><ele>1240.0</ele><time>2026-04-12T12:13:30.998Z</time></trkpt><trkpt lat="42.7951701057717" lon="13.571592793610511"><ele>1240.0</ele><time>2026-04-12T12:13:35Z</time></trkpt><trkpt lat="42.795213090648986" lon="13.571522617332187"><ele>1236.857142857143</ele><time>2026-04-12T12:13:43Z</time></trkpt><trkpt lat="42.79527460569548" lon="13.571484305490406"><ele>1233.7142857142858</ele><time>2026-04-12T12:13:52Z</time></trkpt><trkpt lat="42.79534343814104" lon="13.57146113626237"><ele>1230.5714285714284</ele><time>2026-04-12T12:14:01Z</time></trkpt><trkpt lat="42.7954059852561" lon="13.571434027587209"><ele>1227.4285714285716</ele><time>2026-04-12T12:14:09Z</time></trkpt><trkpt lat="42.795467428926656" lon="13.571397147305152"><ele>1224.2857142857142</ele><time>2026-04-12T12:14:16.999Z</time></trkpt><trkpt lat="42.795534389915204" lon="13.571370076448726"><ele>1221.142857142857</ele><time>2026-04-12T12:14:25.999Z</time></trkpt><trkpt lat="42.79559783408672" lon="13.571335853550707"><ele>1218.0</ele><time>2026-04-12T12:14:33.999Z</time></trkpt><trkpt lat="42.79566024279256" lon="13.571314916622619"><ele>1218.0</ele><time>2026-04-12T12:14:41.999Z</time></trkpt><trkpt lat="42.79572589640303" lon="13.571321065893612"><ele>1218.0</ele><time>2026-04-12T12:14:51.999Z</time></trkpt><trkpt lat="42.795789953336445" lon="13.571331099931589"><ele>1218.0</ele><time>2026-04-12T12:14:59.999Z</time></trkpt><trkpt lat="42.795857146434564" lon="13.571338437878946"><ele>1218.0</ele><time>2026-04-12T12:15:09.998Z</time></trkpt><trkpt lat="42.79591814010233" lon="13.571360180840907"><ele>1218.0</ele><time>2026-04-12T12:15:17.998Z</time></trkpt><trkpt lat="42.795986246500505" lon="13.571328169773633"><ele>1218.0</ele><time>2026-04-12T12:15:26.998Z</time></trkpt><trkpt lat="42.79605292624226" lon="13.571340373944155"><ele>1218.0</ele><time>2026-04-12T12:15:34.998Z</time></trkpt><trkpt lat="42.79612608259403" lon="13.571322933217541"><ele>1215.0</ele><time>2026-04-12T12:15:44Z</time></trkpt><trkpt lat="42.79619445468952" lon="13.571328057258114"><ele>1212.0</ele><time>2026-04-12T12:15:54Z</time></trkpt><trkpt lat="42.796257549859156" lon="13.571303342478693"><ele>1209.0</ele><time>2026-04-12T12:16:03Z</time></trkpt><trkpt lat="42.796322859761894" lon="13.571287287605555"><ele>1206.0</ele><time>2026-04-12T12:18:11Z</time></trkpt><trkpt lat="42.79638819467143" lon="13.571280163632322"><ele>1203.0</ele><time>2026-04-12T12:18:18Z</time></trkpt><trkpt lat="42.79645723893759" lon="13.57126311940502"><ele>1200.0</ele><time>2026-04-12T12:18:24.999Z</time></trkpt><trkpt lat="42.79652730533942" lon="13.571259331729078"><ele>1197.0</ele><time>2026-04-12T12:18:31.999Z</time></trkpt><trkpt lat="42.796589357230864" lon="13.571220750042396"><ele>1197.0</ele><time>2026-04-12T12:18:39.999Z</time></trkpt><trkpt lat="42.79665541510452" lon="13.571204099842818"><ele>1197.0</ele><time>2026-04-12T12:18:47.999Z</time></trkpt><trkpt lat="42.796720428992174" lon="13.571208956665261"><ele>1197.0</ele><time>2026-04-12T12:18:55.999Z</time></trkpt><trkpt lat="42.796788206287815" lon="13.571187727871221"><ele>1197.0</ele><time>2026-04-12T12:19:03.999Z</time></trkpt><trkpt lat="42.796854381963044" lon="13.571175701825823"><ele>1197.0</ele><time>2026-04-12T12:19:11.999Z</time></trkpt><trkpt lat="42.79692250348367" lon="13.571161749285652"><ele>1197.0</ele><time>2026-04-12T12:19:20.998Z</time></trkpt><trkpt lat="42.79698617606907" lon="13.57113494866443"><ele>1197.0</ele><time>2026-04-12T12:19:27.998Z</time></trkpt><trkpt lat="42.79704908227896" lon="13.571114692549079"><ele>1193.2857142857142</ele><time>2026-04-12T12:19:34.998Z</time></trkpt><trkpt lat="42.79711819147156" lon="13.571092754552987"><ele>1189.5714285714284</ele><time>2026-04-12T12:19:43.998Z</time></trkpt><trkpt lat="42.797187978490584" lon="13.571087059607159"><ele>1185.857142857143</ele><time>2026-04-12T12:19:52Z</time></trkpt><trkpt lat="42.7972572300191" lon="13.571089497293169"><ele>1182.142857142857</ele><time>2026-04-12T12:19:59Z</time></trkpt><trkpt lat="42.79732541919408" lon="13.57109253574588"><ele>1178.4285714285713</ele><time>2026-04-12T12:20:07Z</time></trkpt><trkpt lat="42.797392335929466" lon="13.57110805682941"><ele>1174.7142857142858</ele><time>2026-04-12T12:20:15Z</time></trkpt><trkpt lat="42.79745881485934" lon="13.571126321422947"><ele>1171.0</ele><time>2026-04-12T12:20:22Z</time></trkpt><trkpt lat="42.79752330727308" lon="13.571141856172037"><ele>1171.0</ele><time>2026-04-12T12:20:31.999Z</time></trkpt><trkpt lat="42.79758546903906" lon="13.571170031162767"><ele>1171.0</ele><time>2026-04-12T12:20:39.999Z</time></trkpt><trkpt lat="42.79764633451017" lon="13.571217395882982"><ele>1171.0</ele><time>2026-04-12T12:20:51.999Z</time></trkpt><trkpt lat="42.79771016742956" lon="13.571250287489532"><ele>1171.0</ele><time>2026-04-12T12:20:59.999Z</time></trkpt><trkpt lat="42.797765196042086" lon="13.571303134230545"><ele>1171.0</ele><time>2026-04-12T12:21:14.999Z</time></trkpt><trkpt lat="42.797823003916406" lon="13.571348513809209"><ele>1171.0</ele><time>2026-04-12T12:21:23.998Z</time></trkpt><trkpt lat="42.79786654981104" lon="13.571412397858019"><ele>1171.0</ele><time>2026-04-12T12:21:36.998Z</time></trkpt><trkpt lat="42.79794460432525" lon="13.57144098809397"><ele>1168.2857142857142</ele><time>2026-04-12T12:21:51.998Z</time></trkpt><trkpt lat="42.797951840982876" lon="13.571355540731822"><ele>1165.5714285714284</ele><time>2026-04-12T12:22:06Z</time></trkpt><trkpt lat="42.797974528486776" lon="13.571271847022327"><ele>1162.857142857143</ele><time>2026-04-12T12:22:12Z</time></trkpt><trkpt lat="42.798036624587176" lon="13.571256203564039"><ele>1160.142857142857</ele><time>2026-04-12T12:22:23Z</time></trkpt><trkpt lat="42.79810033745711" lon="13.571246911906101"><ele>1157.4285714285716</ele><time>2026-04-12T12:22:33Z</time></trkpt><trkpt lat="42.79815616498754" lon="13.571202731706636"><ele>1154.7142857142858</ele><time>2026-04-12T12:22:41.999Z</time></trkpt><trkpt lat="42.79822330793353" lon="13.571194664266727"><ele>1152.0</ele><time>2026-04-12T12:22:50.999Z</time></trkpt><trkpt lat="42.79828582366815" lon="13.571154743379005"><ele>1151.4285714285716</ele><time>2026-04-12T12:23:00.999Z</time></trkpt><trkpt lat="42.798346004600255" lon="13.571123774581636"><ele>1150.857142857143</ele><time>2026-04-12T12:23:12.999Z</time></trkpt><trkpt lat="42.798410021566674" lon="13.571124413481794"><ele>1150.2857142857142</ele><time>2026-04-12T12:23:22.999Z</time></trkpt><trkpt lat="42.79847580676252" lon="13.57110909313579"><ele>1149.7142857142858</ele><time>2026-04-12T12:23:32.998Z</time></trkpt><trkpt lat="42.798534355391496" lon="13.571051383957581"><ele>1149.142857142857</ele><time>2026-04-12T12:23:41.998Z</time></trkpt><trkpt lat="42.79857573692655" lon="13.570985705564336"><ele>1148.5714285714287</ele><time>2026-04-12T12:23:49.998Z</time></trkpt><trkpt lat="42.79861998037195" lon="13.570911559021873"><ele>1148.0</ele><time>2026-04-12T12:23:57.998Z</time></trkpt><trkpt lat="42.79867240292601" lon="13.570859203173486"><ele>1144.7142857142858</ele><time>2026-04-12T12:24:05Z</time></trkpt><trkpt lat="42.798730461628416" lon="13.570805273823803"><ele>1141.4285714285716</ele><time>2026-04-12T12:24:13Z</time></trkpt><trkpt lat="42.798788777598894" lon="13.570768685151029"><ele>1138.142857142857</ele><time>2026-04-12T12:24:24Z</time></trkpt><trkpt lat="42.79881302664988" lon="13.570684690167866"><ele>1134.857142857143</ele><time>2026-04-12T12:24:33Z</time></trkpt><trkpt lat="42.79886424056333" lon="13.570625632960281"><ele>1131.5714285714287</ele><time>2026-04-12T12:24:44.999Z</time></trkpt><trkpt lat="42.79892666605324" lon="13.57058726175519"><ele>1128.2857142857142</ele><time>2026-04-12T12:24:52.999Z</time></trkpt><trkpt lat="42.79898274452121" lon="13.57052790784498"><ele>1125.0</ele><time>2026-04-12T12:25:01.999Z</time></trkpt><trkpt lat="42.799048789835155" lon="13.570528445356159"><ele>1125.0</ele><time>2026-04-12T12:25:11.999Z</time></trkpt><trkpt lat="42.79909778691468" lon="13.570584554357078"><ele>1125.0</ele><time>2026-04-12T12:25:20.999Z</time></trkpt><trkpt lat="42.79914851849977" lon="13.570516118165818"><ele>1125.0</ele><time>2026-04-12T12:25:28.999Z</time></trkpt><trkpt lat="42.799181082981534" lon="13.57044009024327"><ele>1125.0</ele><time>2026-04-12T12:25:36.998Z</time></trkpt><trkpt lat="42.7992168720818" lon="13.570350702873966"><ele>1125.0</ele><time>2026-04-12T12:25:43.998Z</time></trkpt><trkpt lat="42.799239158550165" lon="13.57025606954027"><ele>1125.0</ele><time>2026-04-12T12:25:51.998Z</time></trkpt><trkpt lat="42.79928221467944" lon="13.570178871305332"><ele>1125.0</ele><time>2026-04-12T12:25:57.998Z</time></trkpt><trkpt lat="42.79935619647811" lon="13.57021722342522"><ele>1108.0</ele><time>2026-04-12T12:26:07.998Z</time></trkpt><trkpt lat="42.799419934537255" lon="13.570236769525396"><ele>1108.0</ele><time>2026-04-12T12:26:13Z</time></trkpt></trkseg></trk></gpx>